<?xml version='1.0' encoding='UTF-8'?><gpx version="1.1" creator="JPX - https://github.com/jenetics/jpx" xmlns="http://www.topografix.com/GPX/1/1"><trk><trkseg><trkpt lat="48.99156702968767" lon="2.432487944377407"><ele>69.0</ele><time>2026-03-31T23:25:15.999Z</time></trkpt><trkpt lat="48.9916395215566" lon="2.432593195791053"><ele>69.0</ele><time>2026-03-31T23:25:17.999Z</time></trkpt><trkpt lat="48.99170704630234" lon="2.4326954198519335"><ele>69.0</ele><time>2026-03-31T23:25:19.999Z</time></trkpt><trkpt lat="48.991731883414104" lon="2.432808479770924"><ele>69.0</ele><time>2026-03-31T23:25:21.999Z</time></trkpt><trkpt lat="48.99168945773117" lon="2.4329393768239815"><ele>69.0</ele><time>2026-03-31T23:25:23.999Z</time></trkpt><trkpt lat="48.99164578778521" lon="2.4330168337515645"><ele>69.0</ele><time>2026-03-31T23:25:24.999Z</time></trkpt><trkpt lat="48.991577341937145" lon="2.4331202434230748"><ele>68.75</ele><time>2026-03-31T23:25:25.999Z</time></trkpt><trkpt lat="48.991507431830605" lon="2.43325147251876"><ele>68.5</ele><time>2026-03-31T23:25:26.999Z</time></trkpt><trkpt lat="48.99141861620282" lon="2.4333678201865436"><ele>68.25</ele><time>2026-03-31T23:25:27.999Z</time></trkpt><trkpt lat="48.99134309749403" lon="2.433491436408172"><ele>68.0</ele><time>2026-03-31T23:25:28.999Z</time></trkpt><trkpt lat="48.99126332024707" lon="2.433621928340096"><ele>68.0</ele><time>2026-03-31T23:25:29.999Z</time></trkpt><trkpt lat="48.991190545712854" lon="2.433740965860857"><ele>68.0</ele><time>2026-03-31T23:25:30.999Z</time></trkpt><trkpt lat="48.99111757726727" lon="2.4338590740669725"><ele>68.0</ele><time>2026-03-31T23:25:31.999Z</time></trkpt><trkpt lat="48.9910479501408" lon="2.43397117317752"><ele>68.0</ele><time>2026-03-31T23:25:32.999Z</time></trkpt><trkpt lat="48.990983470809596" lon="2.4341090598351274"><ele>68.0</ele><time>2026-03-31T23:25:33.999Z</time></trkpt><trkpt lat="48.99090122952218" lon="2.4342306998431495"><ele>67.8</ele><time>2026-03-31T23:25:34.999Z</time></trkpt><trkpt lat="48.990830626255914" lon="2.434346282144023"><ele>67.6</ele><time>2026-03-31T23:25:35.999Z</time></trkpt><trkpt lat="48.99076279898307" lon="2.4344599462564793"><ele>67.4</ele><time>2026-03-31T23:25:36.999Z</time></trkpt><trkpt lat="48.99069561630373" lon="2.4345790570589143"><ele>67.2</ele><time>2026-03-31T23:25:37.999Z</time></trkpt><trkpt lat="48.99063421556751" lon="2.4346891848612886"><ele>67.0</ele><time>2026-03-31T23:25:38.999Z</time></trkpt><trkpt lat="48.99057753366374" lon="2.434813813159056"><ele>67.0</ele><time>2026-03-31T23:25:39.999Z</time></trkpt><trkpt lat="48.99052859457705" lon="2.434935667462714"><ele>67.0</ele><time>2026-03-31T23:25:40.999Z</time></trkpt><trkpt lat="48.99046321642899" lon="2.4350688527706987"><ele>67.0</ele><time>2026-03-31T23:25:41.999Z</time></trkpt><trkpt lat="48.99043085639572" lon="2.4352042382681187"><ele>67.0</ele><time>2026-03-31T23:25:42.999Z</time></trkpt><trkpt lat="48.99039952081137" lon="2.435357856994224"><ele>67.0</ele><time>2026-03-31T23:25:43.999Z</time></trkpt><trkpt lat="48.99036939051307" lon="2.435520744239756"><ele>66.2</ele><time>2026-03-31T23:25:44.999Z</time></trkpt><trkpt lat="48.99034730265849" lon="2.4356831895286315"><ele>65.4</ele><time>2026-03-31T23:25:45.999Z</time></trkpt><trkpt lat="48.99033639531146" lon="2.435843563477901"><ele>64.6</ele><time>2026-03-31T23:25:46.999Z</time></trkpt><trkpt lat="48.990331248985676" lon="2.43600999461408"><ele>63.8</ele><time>2026-03-31T23:25:47.999Z</time></trkpt><trkpt lat="48.99034257741593" lon="2.436173732432756"><ele>63.0</ele><time>2026-03-31T23:25:48.999Z</time></trkpt><trkpt lat="48.99036236523063" lon="2.4363402086516968"><ele>62.4</ele><time>2026-03-31T23:25:49.999Z</time></trkpt><trkpt lat="48.99039339372093" lon="2.4364868257457535"><ele>61.8</ele><time>2026-03-31T23:25:50.999Z</time></trkpt><trkpt lat="48.99043206794974" lon="2.436647272813733"><ele>61.2</ele><time>2026-03-31T23:25:51.999Z</time></trkpt><trkpt lat="48.99047585966355" lon="2.4367995907673166"><ele>60.6</ele><time>2026-03-31T23:25:52.999Z</time></trkpt><trkpt lat="48.99053444571778" lon="2.4369459311882973"><ele>60.0</ele><time>2026-03-31T23:25:53.999Z</time></trkpt><trkpt lat="48.99057583246453" lon="2.4371216647266074"><ele>59.5</ele><time>2026-03-31T23:25:54.999Z</time></trkpt><trkpt lat="48.990631268567945" lon="2.4372639256564352"><ele>59.0</ele><time>2026-03-31T23:25:55.999Z</time></trkpt><trkpt lat="48.99068415631757" lon="2.437416149835189"><ele>58.5</ele><time>2026-03-31T23:25:56.999Z</time></trkpt><trkpt lat="48.9907530547479" lon="2.437550924902307"><ele>58.0</ele><time>2026-03-31T23:25:57.999Z</time></trkpt><trkpt lat="48.990828222472196" lon="2.4376953218627135"><ele>58.25</ele><time>2026-03-31T23:25:58.999Z</time></trkpt><trkpt lat="48.99090597749384" lon="2.4378334748991857"><ele>58.5</ele><time>2026-03-31T23:25:59.999Z</time></trkpt><trkpt lat="48.99098431638833" lon="2.4379579792434742"><ele>58.75</ele><time>2026-03-31T23:26:00.998Z</time></trkpt><trkpt lat="48.991075925924434" lon="2.4380910100999307"><ele>59.0</ele><time>2026-03-31T23:26:01.998Z</time></trkpt><trkpt lat="48.99117787652709" lon="2.438187377281578"><ele>59.0</ele><time>2026-03-31T23:26:02.998Z</time></trkpt><trkpt lat="48.99127477608277" lon="2.43829904398744"><ele>59.0</ele><time>2026-03-31T23:26:03.998Z</time></trkpt><trkpt lat="48.991369413495626" lon="2.438413772608361"><ele>59.0</ele><time>2026-03-31T23:26:04.998Z</time></trkpt><trkpt lat="48.99146747276409" lon="2.4385201125803135"><ele>59.0</ele><time>2026-03-31T23:26:05.998Z</time></trkpt><trkpt lat="48.991569606397455" lon="2.4386214648951126"><ele>59.0</ele><time>2026-03-31T23:26:06.998Z</time></trkpt><trkpt lat="48.99166034199944" lon="2.4387342802489043"><ele>59.0</ele><time>2026-03-31T23:26:07.998Z</time></trkpt><trkpt lat="48.99174278007841" lon="2.4388612277171937"><ele>59.0</ele><time>2026-03-31T23:26:08.998Z</time></trkpt><trkpt lat="48.99181235049801" lon="2.43899662069829"><ele>59.0</ele><time>2026-03-31T23:26:09.998Z</time></trkpt><trkpt lat="48.99187107875544" lon="2.439152265411235"><ele>59.75</ele><time>2026-03-31T23:26:10.998Z</time></trkpt><trkpt lat="48.99192719603348" lon="2.4393144947425243"><ele>60.5</ele><time>2026-03-31T23:26:11.998Z</time></trkpt><trkpt lat="48.99197544997342" lon="2.4394788728360592"><ele>61.25</ele><time>2026-03-31T23:26:12.998Z</time></trkpt><trkpt lat="48.9920025578991" lon="2.439651909440029"><ele>62.0</ele><time>2026-03-31T23:26:14Z</time></trkpt><trkpt lat="48.99200896108999" lon="2.4398316460777236"><ele>62.75</ele><time>2026-03-31T23:26:15Z</time></trkpt><trkpt lat="48.99202216553104" lon="2.44002071578433"><ele>63.5</ele><time>2026-03-31T23:26:16Z</time></trkpt><trkpt lat="48.99202727648033" lon="2.440211538653748"><ele>64.25</ele><time>2026-03-31T23:26:17Z</time></trkpt><trkpt lat="48.992036348160845" lon="2.4403935445263274"><ele>65.0</ele><time>2026-03-31T23:26:18Z</time></trkpt><trkpt lat="48.9920541336046" lon="2.4405747505454993"><ele>65.75</ele><time>2026-03-31T23:26:19Z</time></trkpt><trkpt lat="48.99207693156147" lon="2.4407614521150496"><ele>66.5</ele><time>2026-03-31T23:26:20Z</time></trkpt><trkpt lat="48.992110199120354" lon="2.4409414063643204"><ele>67.25</ele><time>2026-03-31T23:26:21Z</time></trkpt><trkpt lat="48.9921545807359" lon="2.441114718405461"><ele>68.0</ele><time>2026-03-31T23:26:22Z</time></trkpt><trkpt lat="48.99221427705841" lon="2.441273240309738"><ele>68.25</ele><time>2026-03-31T23:26:23Z</time></trkpt><trkpt lat="48.99228174497534" lon="2.441421677776154"><ele>68.5</ele><time>2026-03-31T23:26:24Z</time></trkpt><trkpt lat="48.99233692362009" lon="2.4415824428926283"><ele>68.75</ele><time>2026-03-31T23:26:25Z</time></trkpt><trkpt lat="48.992416656819664" lon="2.4416940602163373"><ele>69.0</ele><time>2026-03-31T23:26:26Z</time></trkpt><trkpt lat="48.99250264021567" lon="2.4418101456987555"><ele>69.0</ele><time>2026-03-31T23:26:27Z</time></trkpt><trkpt lat="48.992584021766355" lon="2.4419352554962255"><ele>69.0</ele><time>2026-03-31T23:26:28Z</time></trkpt><trkpt lat="48.99264963537383" lon="2.4420873473587084"><ele>69.0</ele><time>2026-03-31T23:26:29Z</time></trkpt><trkpt lat="48.99273296338066" lon="2.442189189308684"><ele>69.0</ele><time>2026-03-31T23:26:30Z</time></trkpt><trkpt lat="48.99280100150411" lon="2.442290972554181"><ele>69.0</ele><time>2026-03-31T23:26:31Z</time></trkpt><trkpt lat="48.99284707284436" lon="2.4424080112431277"><ele>69.5</ele><time>2026-03-31T23:26:32Z</time></trkpt><trkpt lat="48.99291575379994" lon="2.4424870412846644"><ele>70.0</ele><time>2026-03-31T23:26:33Z</time></trkpt><trkpt lat="48.99297054239796" lon="2.4425808394034227"><ele>70.5</ele><time>2026-03-31T23:26:34Z</time></trkpt><trkpt lat="48.99299894568076" lon="2.442694839411371"><ele>71.0</ele><time>2026-03-31T23:26:35Z</time></trkpt><trkpt lat="48.993033799818335" lon="2.442810696818896"><ele>71.5</ele><time>2026-03-31T23:26:36Z</time></trkpt><trkpt lat="48.993085893922256" lon="2.442911162443437"><ele>72.0</ele><time>2026-03-31T23:26:37Z</time></trkpt><trkpt lat="48.99315558394116" lon="2.44297931029067"><ele>72.0</ele><time>2026-03-31T23:26:38Z</time></trkpt><trkpt lat="48.99326972579101" lon="2.442999310809899"><ele>72.0</ele><time>2026-03-31T23:26:39Z</time></trkpt><trkpt lat="48.993338199406075" lon="2.443099176759464"><ele>72.0</ele><time>2026-03-31T23:26:40Z</time></trkpt><trkpt lat="48.99341172969929" lon="2.443225753778957"><ele>72.0</ele><time>2026-03-31T23:26:41Z</time></trkpt><trkpt lat="48.993502318050844" lon="2.443339481160925"><ele>72.0</ele><time>2026-03-31T23:26:42Z</time></trkpt><trkpt lat="48.9935873875034" lon="2.4434620460852883"><ele>72.0</ele><time>2026-03-31T23:26:43Z</time></trkpt><trkpt lat="48.99366762639315" lon="2.443600473212305"><ele>72.0</ele><time>2026-03-31T23:26:44Z</time></trkpt><trkpt lat="48.99373888851953" lon="2.443745430433532"><ele>72.0</ele><time>2026-03-31T23:26:45Z</time></trkpt><trkpt lat="48.993807098658095" lon="2.4438876915494023"><ele>72.0</ele><time>2026-03-31T23:26:46Z</time></trkpt><trkpt lat="48.99387611369711" lon="2.444034193741706"><ele>72.0</ele><time>2026-03-31T23:26:47Z</time></trkpt><trkpt lat="48.99393495759705" lon="2.44419267164209"><ele>72.0</ele><time>2026-03-31T23:26:48Z</time></trkpt><trkpt lat="48.993992858348" lon="2.444344615098323"><ele>72.0</ele><time>2026-03-31T23:26:49Z</time></trkpt><trkpt lat="48.9940453762288" lon="2.444500360562522"><ele>72.0</ele><time>2026-03-31T23:26:50Z</time></trkpt><trkpt lat="48.99409303226808" lon="2.444667364317237"><ele>72.25</ele><time>2026-03-31T23:26:51Z</time></trkpt><trkpt lat="48.99413013294183" lon="2.444835965523322"><ele>72.5</ele><time>2026-03-31T23:26:52Z</time></trkpt><trkpt lat="48.99416584336071" lon="2.4450027586023775"><ele>72.75</ele><time>2026-03-31T23:26:53Z</time></trkpt><trkpt lat="48.99420302359057" lon="2.4451791405627255"><ele>73.0</ele><time>2026-03-31T23:26:54Z</time></trkpt><trkpt lat="48.99423019156879" lon="2.4453596504818016"><ele>73.25</ele><time>2026-03-31T23:26:55Z</time></trkpt><trkpt lat="48.99426262773313" lon="2.4455324760441894"><ele>73.5</ele><time>2026-03-31T23:26:56Z</time></trkpt><trkpt lat="48.99429391630454" lon="2.445712136933074"><ele>73.75</ele><time>2026-03-31T23:26:57Z</time></trkpt><trkpt lat="48.994327687805246" lon="2.4458949654998086"><ele>74.0</ele><time>2026-03-31T23:26:58Z</time></trkpt><trkpt lat="48.994354579491976" lon="2.4460807682071493"><ele>74.0</ele><time>2026-03-31T23:26:59Z</time></trkpt><trkpt lat="48.994378387240374" lon="2.4462689347658486"><ele>74.0</ele><time>2026-03-31T23:27:00Z</time></trkpt><trkpt lat="48.99441008384808" lon="2.446458836248035"><ele>74.0</ele><time>2026-03-31T23:27:00.999Z</time></trkpt><trkpt lat="48.994445146794995" lon="2.4466516334889823"><ele>74.0</ele><time>2026-03-31T23:27:01.999Z</time></trkpt><trkpt lat="48.99447459614774" lon="2.4468527287645383"><ele>73.75</ele><time>2026-03-31T23:27:02.999Z</time></trkpt><trkpt lat="48.994506429712345" lon="2.4470485922289935"><ele>73.5</ele><time>2026-03-31T23:27:03.999Z</time></trkpt><trkpt lat="48.99453825846048" lon="2.4472623686232473"><ele>73.25</ele><time>2026-03-31T23:27:04.999Z</time></trkpt><trkpt lat="48.99456026212699" lon="2.4474880027478005"><ele>73.0</ele><time>2026-03-31T23:27:05.999Z</time></trkpt><trkpt lat="48.99459679770998" lon="2.4477110364856913"><ele>72.66666666666666</ele><time>2026-03-31T23:27:06.999Z</time></trkpt><trkpt lat="48.99462607695265" lon="2.447943899118662"><ele>72.33333333333333</ele><time>2026-03-31T23:27:07.999Z</time></trkpt><trkpt lat="48.99465716774229" lon="2.4481742885346067"><ele>72.0</ele><time>2026-03-31T23:27:08.999Z</time></trkpt><trkpt lat="48.99469139880459" lon="2.4484014735662525"><ele>71.66666666666667</ele><time>2026-03-31T23:27:09.999Z</time></trkpt><trkpt lat="48.994724348550996" lon="2.448628556452928"><ele>71.33333333333334</ele><time>2026-03-31T23:27:10.999Z</time></trkpt><trkpt lat="48.994755242788294" lon="2.4488591580738768"><ele>71.0</ele><time>2026-03-31T23:27:11.999Z</time></trkpt><trkpt lat="48.9947860310617" lon="2.4490801731341922"><ele>70.5</ele><time>2026-03-31T23:27:12.999Z</time></trkpt><trkpt lat="48.99482105595465" lon="2.4492999560919864"><ele>70.0</ele><time>2026-03-31T23:27:13.999Z</time></trkpt><trkpt lat="48.994845880195236" lon="2.4495199749300975"><ele>69.5</ele><time>2026-03-31T23:27:14.999Z</time></trkpt><trkpt lat="48.99486146719322" lon="2.4497354556371183"><ele>69.0</ele><time>2026-03-31T23:27:15.999Z</time></trkpt><trkpt lat="48.99486804496991" lon="2.4499492735964346"><ele>69.0</ele><time>2026-03-31T23:27:16.999Z</time></trkpt><trkpt lat="48.99486644444118" lon="2.4501686750315157"><ele>69.0</ele><time>2026-03-31T23:27:17.999Z</time></trkpt><trkpt lat="48.994850341924675" lon="2.4503932661831618"><ele>69.0</ele><time>2026-03-31T23:27:18.999Z</time></trkpt><trkpt lat="48.99483385559779" lon="2.4506040637335245"><ele>69.0</ele><time>2026-03-31T23:27:19.999Z</time></trkpt><trkpt lat="48.99478697771996" lon="2.450773912263026"><ele>68.8</ele><time>2026-03-31T23:27:20.999Z</time></trkpt><trkpt lat="48.99475130348705" lon="2.450957536298531"><ele>68.60000000000001</ele><time>2026-03-31T23:27:21.999Z</time></trkpt><trkpt lat="48.9947185571959" lon="2.4511211741451415"><ele>68.4</ele><time>2026-03-31T23:27:22.999Z</time></trkpt><trkpt lat="48.99468544157639" lon="2.451260872053253"><ele>68.2</ele><time>2026-03-31T23:27:23.999Z</time></trkpt><trkpt lat="48.99465713882319" lon="2.4513765828629595"><ele>68.0</ele><time>2026-03-31T23:27:24.999Z</time></trkpt><trkpt lat="48.99463331820616" lon="2.4514699597515937"><ele>68.33333333333334</ele><time>2026-03-31T23:27:25.999Z</time></trkpt><trkpt lat="48.9945813754742" lon="2.451551891396091"><ele>68.66666666666667</ele><time>2026-03-31T23:27:26.999Z</time></trkpt><trkpt lat="48.994524415515365" lon="2.451622212749649"><ele>69.0</ele><time>2026-03-31T23:27:27.999Z</time></trkpt><trkpt lat="48.994493737078784" lon="2.4517221743526094"><ele>69.33333333333333</ele><time>2026-03-31T23:27:28.999Z</time></trkpt><trkpt lat="48.994492419757535" lon="2.4518472165892216"><ele>69.66666666666666</ele><time>2026-03-31T23:27:29.999Z</time></trkpt><trkpt lat="48.99449885023017" lon="2.451987070678653"><ele>70.0</ele><time>2026-03-31T23:27:30.999Z</time></trkpt><trkpt lat="48.99447830670102" lon="2.4521354885900184"><ele>70.5</ele><time>2026-03-31T23:27:31.999Z</time></trkpt><trkpt lat="48.9944182448883" lon="2.452279953020737"><ele>71.0</ele><time>2026-03-31T23:27:32.999Z</time></trkpt><trkpt lat="48.994348806980334" lon="2.452419064134479"><ele>71.5</ele><time>2026-03-31T23:27:33.999Z</time></trkpt><trkpt lat="48.994265092905955" lon="2.452581401599018"><ele>72.0</ele><time>2026-03-31T23:27:34.999Z</time></trkpt><trkpt lat="48.994172365099956" lon="2.452759991245642"><ele>71.33333333333333</ele><time>2026-03-31T23:27:35.999Z</time></trkpt><trkpt lat="48.99407642302222" lon="2.45293941071786"><ele>70.66666666666666</ele><time>2026-03-31T23:27:36.999Z</time></trkpt><trkpt lat="48.993969777717275" lon="2.453122826553672"><ele>70.0</ele><time>2026-03-31T23:27:37.999Z</time></trkpt><trkpt lat="48.99386340628907" lon="2.453300703334697"><ele>70.0</ele><time>2026-03-31T23:27:38.999Z</time></trkpt><trkpt lat="48.99375967755733" lon="2.4534714193648903"><ele>70.0</ele><time>2026-03-31T23:27:39.999Z</time></trkpt><trkpt lat="48.99366313936122" lon="2.453631839180779"><ele>70.0</ele><time>2026-03-31T23:27:40.999Z</time></trkpt><trkpt lat="48.99357145757436" lon="2.4537847210209454"><ele>70.0</ele><time>2026-03-31T23:27:41.999Z</time></trkpt><trkpt lat="48.99348510069037" lon="2.453933352135154"><ele>70.4</ele><time>2026-03-31T23:27:42.999Z</time></trkpt><trkpt lat="48.99340066917148" lon="2.4540728025890073"><ele>70.8</ele><time>2026-03-31T23:27:43.999Z</time></trkpt><trkpt lat="48.993320385662045" lon="2.454203649037257"><ele>71.2</ele><time>2026-03-31T23:27:44.999Z</time></trkpt><trkpt lat="48.99324657655515" lon="2.45431386013478"><ele>71.6</ele><time>2026-03-31T23:27:45.999Z</time></trkpt><trkpt lat="48.99317472276065" lon="2.4544025337989974"><ele>72.0</ele><time>2026-03-31T23:27:46.999Z</time></trkpt><trkpt lat="48.993101049823125" lon="2.4544696322563313"><ele>72.0</ele><time>2026-03-31T23:27:47.999Z</time></trkpt><trkpt lat="48.99300950927305" lon="2.4544972906980433"><ele>72.0</ele><time>2026-03-31T23:27:48.999Z</time></trkpt><trkpt lat="48.99291309764086" lon="2.4544813274656745"><ele>72.0</ele><time>2026-03-31T23:27:49.999Z</time></trkpt><trkpt lat="48.99282945895694" lon="2.4545074900296338"><ele>72.0</ele><time>2026-03-31T23:27:50.999Z</time></trkpt><trkpt lat="48.992768649118126" lon="2.4545959095531624"><ele>72.0</ele><time>2026-03-31T23:27:51.999Z</time></trkpt><trkpt lat="48.99272959613331" lon="2.4547034329692785"><ele>72.0</ele><time>2026-03-31T23:27:52.999Z</time></trkpt><trkpt lat="48.99271939276019" lon="2.4548299408452476"><ele>72.16666666666667</ele><time>2026-03-31T23:27:53.999Z</time></trkpt><trkpt lat="48.99273725406614" lon="2.454946821008609"><ele>72.33333333333333</ele><time>2026-03-31T23:27:54.999Z</time></trkpt><trkpt lat="48.99278264260468" lon="2.455048799186184"><ele>72.5</ele><time>2026-03-31T23:27:55.999Z</time></trkpt><trkpt lat="48.992830126305805" lon="2.4551551802666065"><ele>72.66666666666666</ele><time>2026-03-31T23:27:56.999Z</time></trkpt><trkpt lat="48.99293718828419" lon="2.455174438016449"><ele>72.83333333333333</ele><time>2026-03-31T23:27:57.999Z</time></trkpt><trkpt lat="48.993026244906986" lon="2.4552202311893425"><ele>73.0</ele><time>2026-03-31T23:27:58.999Z</time></trkpt><trkpt lat="48.99310552583819" lon="2.4552980117291834"><ele>73.0</ele><time>2026-03-31T23:27:59.999Z</time></trkpt><trkpt lat="48.99318972872436" lon="2.455411579743549"><ele>73.0</ele><time>2026-03-31T23:28:00.999Z</time></trkpt><trkpt lat="48.993283781807826" lon="2.4555440622801954"><ele>73.0</ele><time>2026-03-31T23:28:01.999Z</time></trkpt><trkpt lat="48.99338673515422" lon="2.455690348421951"><ele>73.0</ele><time>2026-03-31T23:28:02.999Z</time></trkpt><trkpt lat="48.99349358127256" lon="2.45584740256122"><ele>74.0</ele><time>2026-03-31T23:28:03.999Z</time></trkpt><trkpt lat="48.993614871051314" lon="2.4560145719133204"><ele>75.0</ele><time>2026-03-31T23:28:04.999Z</time></trkpt><trkpt lat="48.993750584138276" lon="2.4561939024322927"><ele>76.0</ele><time>2026-03-31T23:28:05.999Z</time></trkpt><trkpt lat="48.99388876071821" lon="2.4563815861223897"><ele>76.0</ele><time>2026-03-31T23:28:06.998Z</time></trkpt><trkpt lat="48.99402246444684" lon="2.4565656807324423"><ele>76.0</ele><time>2026-03-31T23:28:07.998Z</time></trkpt><trkpt lat="48.9941522684712" lon="2.456744095298436"><ele>76.0</ele><time>2026-03-31T23:28:08.998Z</time></trkpt><trkpt lat="48.994282511149954" lon="2.4569219419629205"><ele>76.0</ele><time>2026-03-31T23:28:09.998Z</time></trkpt><trkpt lat="48.994408499241224" lon="2.457102231967146"><ele>76.0</ele><time>2026-03-31T23:28:10.998Z</time></trkpt><trkpt lat="48.99453538550774" lon="2.457289662568111"><ele>76.0</ele><time>2026-03-31T23:28:11.998Z</time></trkpt><trkpt lat="48.994657921230804" lon="2.45748690417812"><ele>76.0</ele><time>2026-03-31T23:28:12.998Z</time></trkpt><trkpt lat="48.99477597308807" lon="2.4576901713722092"><ele>76.0</ele><time>2026-03-31T23:28:13.998Z</time></trkpt><trkpt lat="48.99488590254211" lon="2.4579004643674613"><ele>76.0</ele><time>2026-03-31T23:28:14.998Z</time></trkpt><trkpt lat="48.99499061520382" lon="2.4581179346059203"><ele>76.66666666666666</ele><time>2026-03-31T23:28:15.998Z</time></trkpt><trkpt lat="48.995095538585105" lon="2.4583508180207794"><ele>77.33333333333333</ele><time>2026-03-31T23:28:16.998Z</time></trkpt><trkpt lat="48.995192089429274" lon="2.4585872067246846"><ele>78.0</ele><time>2026-03-31T23:28:17.998Z</time></trkpt><trkpt lat="48.99528430867902" lon="2.458827531540741"><ele>78.33333333333333</ele><time>2026-03-31T23:28:18.998Z</time></trkpt><trkpt lat="48.995365081529286" lon="2.459077262935264"><ele>78.66666666666666</ele><time>2026-03-31T23:28:20Z</time></trkpt><trkpt lat="48.995445806515555" lon="2.459322505610249"><ele>79.0</ele><time>2026-03-31T23:28:21Z</time></trkpt><trkpt lat="48.995522117761894" lon="2.459566385849314"><ele>78.66666666666666</ele><time>2026-03-31T23:28:22Z</time></trkpt><trkpt lat="48.995595668527876" lon="2.459814298421747"><ele>78.33333333333333</ele><time>2026-03-31T23:28:23Z</time></trkpt><trkpt lat="48.99567034203177" lon="2.460054529894101"><ele>78.0</ele><time>2026-03-31T23:28:24Z</time></trkpt><trkpt lat="48.99575137298521" lon="2.460305825201627"><ele>78.0</ele><time>2026-03-31T23:28:25Z</time></trkpt><trkpt lat="48.99583018347902" lon="2.460550572126495"><ele>78.0</ele><time>2026-03-31T23:28:26Z</time></trkpt><trkpt lat="48.99591574533431" lon="2.4607951419775302"><ele>78.0</ele><time>2026-03-31T23:28:27Z</time></trkpt><trkpt lat="48.99601423087537" lon="2.461034752735044"><ele>78.0</ele><time>2026-03-31T23:28:28Z</time></trkpt><trkpt lat="48.99611710625709" lon="2.461267487500077"><ele>78.0</ele><time>2026-03-31T23:28:29Z</time></trkpt><trkpt lat="48.996221549286766" lon="2.461491153464855"><ele>78.0</ele><time>2026-03-31T23:28:30Z</time></trkpt><trkpt lat="48.996336773880664" lon="2.4617147938814927"><ele>77.66666666666667</ele><time>2026-03-31T23:28:31Z</time></trkpt><trkpt lat="48.99645553635377" lon="2.4619312787433074"><ele>77.33333333333334</ele><time>2026-03-31T23:28:32Z</time></trkpt><trkpt lat="48.99657765075769" lon="2.462143846927852"><ele>77.0</ele><time>2026-03-31T23:28:33Z</time></trkpt><trkpt lat="48.99670092393193" lon="2.46235624917499"><ele>77.0</ele><time>2026-03-31T23:28:34Z</time></trkpt><trkpt lat="48.99682221164868" lon="2.4625699730575863"><ele>77.0</ele><time>2026-03-31T23:28:35Z</time></trkpt><trkpt lat="48.99694784566598" lon="2.4627869257396258"><ele>77.0</ele><time>2026-03-31T23:28:36Z</time></trkpt><trkpt lat="48.99707898230983" lon="2.4630140111347445"><ele>76.0</ele><time>2026-03-31T23:28:37Z</time></trkpt><trkpt lat="48.99721110518917" lon="2.4632251699650234"><ele>75.0</ele><time>2026-03-31T23:28:38Z</time></trkpt><trkpt lat="48.99735092638116" lon="2.463431280046572"><ele>74.0</ele><time>2026-03-31T23:28:39Z</time></trkpt><trkpt lat="48.997494235770866" lon="2.4636211398102947"><ele>73.66666666666667</ele><time>2026-03-31T23:28:40Z</time></trkpt><trkpt lat="48.997642957017504" lon="2.463796557854789"><ele>73.33333333333333</ele><time>2026-03-31T23:28:41Z</time></trkpt><trkpt lat="48.99780004400244" lon="2.4639640668016525"><ele>73.0</ele><time>2026-03-31T23:28:42Z</time></trkpt><trkpt lat="48.99795543699337" lon="2.4641267622572793"><ele>73.0</ele><time>2026-03-31T23:28:43Z</time></trkpt><trkpt lat="48.99811375145568" lon="2.464271141924054"><ele>73.0</ele><time>2026-03-31T23:28:44Z</time></trkpt><trkpt lat="48.99827777735216" lon="2.4644099510648476"><ele>73.0</ele><time>2026-03-31T23:28:45Z</time></trkpt><trkpt lat="48.99844329716432" lon="2.4645299944673384"><ele>71.66666666666666</ele><time>2026-03-31T23:28:46Z</time></trkpt><trkpt lat="48.99861241597253" lon="2.464628345699904"><ele>70.33333333333333</ele><time>2026-03-31T23:28:47Z</time></trkpt><trkpt lat="48.99878392823182" lon="2.4647115446972854"><ele>69.0</ele><time>2026-03-31T23:28:48Z</time></trkpt><trkpt lat="48.99895597883952" lon="2.4647776249652305"><ele>69.0</ele><time>2026-03-31T23:28:49Z</time></trkpt><trkpt lat="48.999129885918514" lon="2.4648293995509225"><ele>69.0</ele><time>2026-03-31T23:28:50Z</time></trkpt><trkpt lat="48.99930341310167" lon="2.464868451257941"><ele>69.0</ele><time>2026-03-31T23:28:51Z</time></trkpt><trkpt lat="48.99947612935055" lon="2.464893357897982"><ele>72.0</ele><time>2026-03-31T23:28:52Z</time></trkpt><trkpt lat="48.999654142950966" lon="2.4649025341880706"><ele>75.0</ele><time>2026-03-31T23:28:53Z</time></trkpt><trkpt lat="48.999828357317696" lon="2.464888960746579"><ele>78.0</ele><time>2026-03-31T23:28:54Z</time></trkpt><trkpt lat="49.00000412799131" lon="2.4648620645202493"><ele>78.0</ele><time>2026-03-31T23:28:55Z</time></trkpt><trkpt lat="49.00018282581316" lon="2.464836611427554"><ele>78.0</ele><time>2026-03-31T23:28:56Z</time></trkpt><trkpt lat="49.00035723193191" lon="2.4648044514215064"><ele>78.0</ele><time>2026-03-31T23:28:57Z</time></trkpt><trkpt lat="49.000528972063044" lon="2.464769420054039"><ele>78.0</ele><time>2026-03-31T23:28:58Z</time></trkpt><trkpt lat="49.0006980621374" lon="2.464734295315845"><ele>78.0</ele><time>2026-03-31T23:28:59Z</time></trkpt><trkpt lat="49.00086772584561" lon="2.4647077001560693"><ele>78.0</ele><time>2026-03-31T23:29:00Z</time></trkpt><trkpt lat="49.001028587814844" lon="2.4646825930341834"><ele>77.75</ele><time>2026-03-31T23:29:01Z</time></trkpt><trkpt lat="49.001169866799025" lon="2.4646563957316827"><ele>77.5</ele><time>2026-03-31T23:29:02Z</time></trkpt><trkpt lat="49.00131610162479" lon="2.4646301366974095"><ele>77.25</ele><time>2026-03-31T23:29:03Z</time></trkpt><trkpt lat="49.001461568412" lon="2.4646112862247813"><ele>77.0</ele><time>2026-03-31T23:29:04Z</time></trkpt><trkpt lat="49.00160544589696" lon="2.4645939176457983"><ele>76.66666666666667</ele><time>2026-03-31T23:29:05Z</time></trkpt><trkpt lat="49.00175371655924" lon="2.464572201967874"><ele>76.33333333333333</ele><time>2026-03-31T23:29:06Z</time></trkpt><trkpt lat="49.00190642766128" lon="2.4645529034922515"><ele>76.0</ele><time>2026-03-31T23:29:07Z</time></trkpt><trkpt lat="49.00206760090817" lon="2.464529682562428"><ele>76.0</ele><time>2026-03-31T23:29:08Z</time></trkpt><trkpt lat="49.002230600669435" lon="2.464496900638614"><ele>76.0</ele><time>2026-03-31T23:29:09Z</time></trkpt><trkpt lat="49.002396068219625" lon="2.4644719309871586"><ele>76.0</ele><time>2026-03-31T23:29:09.999Z</time></trkpt><trkpt lat="49.00256489153935" lon="2.4644442489434986"><ele>75.66666666666666</ele><time>2026-03-31T23:29:10.999Z</time></trkpt><trkpt lat="49.00273529046304" lon="2.464416660321058"><ele>75.33333333333333</ele><time>2026-03-31T23:29:11.999Z</time></trkpt><trkpt lat="49.00290884336771" lon="2.4643874267562462"><ele>75.0</ele><time>2026-03-31T23:29:12.999Z</time></trkpt><trkpt lat="49.00308343316718" lon="2.464357058279397"><ele>75.0</ele><time>2026-03-31T23:29:13.999Z</time></trkpt><trkpt lat="49.00325711488224" lon="2.4643270451259247"><ele>75.0</ele><time>2026-03-31T23:29:14.999Z</time></trkpt><trkpt lat="49.00343298379399" lon="2.464301489716044"><ele>75.0</ele><time>2026-03-31T23:29:15.999Z</time></trkpt><trkpt lat="49.00361346000559" lon="2.4642771270383674"><ele>74.33333333333333</ele><time>2026-03-31T23:29:16.999Z</time></trkpt><trkpt lat="49.00379133367888" lon="2.4642473993222462"><ele>73.66666666666666</ele><time>2026-03-31T23:29:17.999Z</time></trkpt><trkpt lat="49.00397000332334" lon="2.464219758670957"><ele>73.0</ele><time>2026-03-31T23:29:18.999Z</time></trkpt><trkpt lat="49.00415065115321" lon="2.4641888551691102"><ele>72.66666666666666</ele><time>2026-03-31T23:29:19.999Z</time></trkpt><trkpt lat="49.00432971824224" lon="2.464153813396518"><ele>72.33333333333333</ele><time>2026-03-31T23:29:20.999Z</time></trkpt><trkpt lat="49.004512340026615" lon="2.464121229789768"><ele>72.0</ele><time>2026-03-31T23:29:21.999Z</time></trkpt><trkpt lat="49.004692972960704" lon="2.464092475342899"><ele>72.0</ele><time>2026-03-31T23:29:22.999Z</time></trkpt><trkpt lat="49.00487217977329" lon="2.4640670472661825"><ele>72.0</ele><time>2026-03-31T23:29:23.999Z</time></trkpt><trkpt lat="49.00505225498912" lon="2.464039757398241"><ele>72.0</ele><time>2026-03-31T23:29:24.999Z</time></trkpt><trkpt lat="49.00523045108517" lon="2.464015505633658"><ele>71.66666666666667</ele><time>2026-03-31T23:29:25.999Z</time></trkpt><trkpt lat="49.00541179656658" lon="2.4639913619467495"><ele>71.33333333333334</ele><time>2026-03-31T23:29:26.999Z</time></trkpt><trkpt lat="49.005587685591706" lon="2.4639695999237587"><ele>71.0</ele><time>2026-03-31T23:29:27.999Z</time></trkpt><trkpt lat="49.00576269766866" lon="2.4639541158082694"><ele>70.66666666666667</ele><time>2026-03-31T23:29:28.999Z</time></trkpt><trkpt lat="49.00593610712553" lon="2.4639553272661967"><ele>70.33333333333333</ele><time>2026-03-31T23:29:29.999Z</time></trkpt><trkpt lat="49.00611039606136" lon="2.4639720879407285"><ele>70.0</ele><time>2026-03-31T23:29:30.999Z</time></trkpt><trkpt lat="49.006286783935344" lon="2.4639949324697494"><ele>70.0</ele><time>2026-03-31T23:29:31.999Z</time></trkpt><trkpt lat="49.00646062407458" lon="2.4640218886552274"><ele>70.0</ele><time>2026-03-31T23:29:32.999Z</time></trkpt><trkpt lat="49.00663776377633" lon="2.464058319609948"><ele>70.0</ele><time>2026-03-31T23:29:33.999Z</time></trkpt><trkpt lat="49.00681152842407" lon="2.464104666093474"><ele>69.66666666666666</ele><time>2026-03-31T23:29:34.999Z</time></trkpt><trkpt lat="49.0069762804995" lon="2.4641577044543133"><ele>69.33333333333333</ele><time>2026-03-31T23:29:35.999Z</time></trkpt><trkpt lat="49.007132243831094" lon="2.4642134233509156"><ele>69.0</ele><time>2026-03-31T23:29:36.999Z</time></trkpt><trkpt lat="49.0072845486931" lon="2.4642789668250247"><ele>69.0</ele><time>2026-03-31T23:29:37.999Z</time></trkpt><trkpt lat="49.00742749471745" lon="2.464352352361886"><ele>69.0</ele><time>2026-03-31T23:29:38.999Z</time></trkpt><trkpt lat="49.007554526122426" lon="2.464430100014675"><ele>69.0</ele><time>2026-03-31T23:29:39.999Z</time></trkpt><trkpt lat="49.007676966089335" lon="2.4645083925774944"><ele>69.0</ele><time>2026-03-31T23:29:40.999Z</time></trkpt><trkpt lat="49.00779853265953" lon="2.4645900826138463"><ele>68.4</ele><time>2026-03-31T23:29:41.999Z</time></trkpt><trkpt lat="49.00790297184401" lon="2.464666917358864"><ele>67.80000000000001</ele><time>2026-03-31T23:29:42.999Z</time></trkpt><trkpt lat="49.007998125453796" lon="2.4647372513461034"><ele>67.19999999999999</ele><time>2026-03-31T23:29:43.999Z</time></trkpt><trkpt lat="49.00807348902461" lon="2.46480930607526"><ele>66.6</ele><time>2026-03-31T23:29:44.999Z</time></trkpt><trkpt lat="49.008130439997814" lon="2.4648961575566863"><ele>66.0</ele><time>2026-03-31T23:29:45.999Z</time></trkpt><trkpt lat="49.00816639196459" lon="2.465004776950347"><ele>66.0</ele><time>2026-03-31T23:29:46.999Z</time></trkpt><trkpt lat="49.008189485151775" lon="2.4651362205599887"><ele>66.0</ele><time>2026-03-31T23:29:47.999Z</time></trkpt><trkpt lat="49.00825399305811" lon="2.465220893629952"><ele>66.0</ele><time>2026-03-31T23:29:48.999Z</time></trkpt><trkpt lat="49.00832362539934" lon="2.465267766876474"><ele>66.0</ele><time>2026-03-31T23:29:49.999Z</time></trkpt><trkpt lat="49.00842324698865" lon="2.4652501076548603"><ele>66.0</ele><time>2026-03-31T23:29:50.999Z</time></trkpt><trkpt lat="49.00851531715592" lon="2.465284175945998"><ele>66.0</ele><time>2026-03-31T23:29:51.999Z</time></trkpt><trkpt lat="49.00860880606169" lon="2.465342026408522"><ele>64.75</ele><time>2026-03-31T23:29:52.999Z</time></trkpt><trkpt lat="49.008704506073954" lon="2.4654502214428597"><ele>63.5</ele><time>2026-03-31T23:29:53.999Z</time></trkpt><trkpt lat="49.00879500049612" lon="2.4655862326978357"><ele>62.25</ele><time>2026-03-31T23:29:54.999Z</time></trkpt><trkpt lat="49.008891842412204" lon="2.465726572614755"><ele>61.0</ele><time>2026-03-31T23:29:55.999Z</time></trkpt><trkpt lat="49.00901252703475" lon="2.465839340399799"><ele>61.0</ele><time>2026-03-31T23:29:56.999Z</time></trkpt><trkpt lat="49.00912001938098" lon="2.466026868079604"><ele>61.0</ele><time>2026-03-31T23:29:57.999Z</time></trkpt><trkpt lat="49.00923749274323" lon="2.466184160954253"><ele>61.0</ele><time>2026-03-31T23:29:58.999Z</time></trkpt><trkpt lat="49.00935993649849" lon="2.4663535661599334"><ele>60.33333333333333</ele><time>2026-03-31T23:29:59.999Z</time></trkpt><trkpt lat="49.00948139843977" lon="2.466528266951607"><ele>59.66666666666667</ele><time>2026-03-31T23:30:00.999Z</time></trkpt><trkpt lat="49.00960423569596" lon="2.466698328758764"><ele>59.0</ele><time>2026-03-31T23:30:01.999Z</time></trkpt><trkpt lat="49.00973213291145" lon="2.4668710355902097"><ele>59.0</ele><time>2026-03-31T23:30:02.999Z</time></trkpt><trkpt lat="49.00986297210687" lon="2.4670385922327163"><ele>59.0</ele><time>2026-03-31T23:30:03.999Z</time></trkpt><trkpt lat="49.00998652378172" lon="2.467207414401482"><ele>59.0</ele><time>2026-03-31T23:30:04.999Z</time></trkpt><trkpt lat="49.010108084491804" lon="2.4673612560858387"><ele>58.66666666666667</ele><time>2026-03-31T23:30:05.999Z</time></trkpt><trkpt lat="49.01023658215598" lon="2.4675301124760662"><ele>58.33333333333333</ele><time>2026-03-31T23:30:06.999Z</time></trkpt><trkpt lat="49.010365549321065" lon="2.4676930940156474"><ele>58.0</ele><time>2026-03-31T23:30:07.999Z</time></trkpt><trkpt lat="49.01049352019604" lon="2.467860409396068"><ele>57.0</ele><time>2026-03-31T23:30:08.999Z</time></trkpt><trkpt lat="49.01062224593487" lon="2.46802855236498"><ele>56.0</ele><time>2026-03-31T23:30:09.999Z</time></trkpt><trkpt lat="49.01075193770983" lon="2.468201354988086"><ele>55.0</ele><time>2026-03-31T23:30:10.998Z</time></trkpt><trkpt lat="49.01088073520728" lon="2.4683698841112203"><ele>55.0</ele><time>2026-03-31T23:30:11.998Z</time></trkpt><trkpt lat="49.01100626788057" lon="2.4685394654897337"><ele>55.0</ele><time>2026-03-31T23:30:12.998Z</time></trkpt><trkpt lat="49.01113333493506" lon="2.468709444761181"><ele>55.0</ele><time>2026-03-31T23:30:13.998Z</time></trkpt><trkpt lat="49.011260786404264" lon="2.468880022923763"><ele>55.33333333333333</ele><time>2026-03-31T23:30:14.998Z</time></trkpt><trkpt lat="49.01138702415607" lon="2.4690524279004062"><ele>55.66666666666667</ele><time>2026-03-31T23:30:15.998Z</time></trkpt><trkpt lat="49.01151477391948" lon="2.4692258026829816"><ele>56.0</ele><time>2026-03-31T23:30:16.998Z</time></trkpt><trkpt lat="49.011640078773844" lon="2.4693990532541075"><ele>56.66666666666667</ele><time>2026-03-31T23:30:17.998Z</time></trkpt><trkpt lat="49.01176373182537" lon="2.4695720171140287"><ele>57.33333333333333</ele><time>2026-03-31T23:30:18.998Z</time></trkpt><trkpt lat="49.011882006307935" lon="2.469736425380522"><ele>58.0</ele><time>2026-03-31T23:30:19.998Z</time></trkpt><trkpt lat="49.011992239025176" lon="2.4698898023677227"><ele>58.25</ele><time>2026-03-31T23:30:20.998Z</time></trkpt><trkpt lat="49.01210200984633" lon="2.470031026584407"><ele>58.5</ele><time>2026-03-31T23:30:21.998Z</time></trkpt><trkpt lat="49.01220379372225" lon="2.470154405746362"><ele>58.75</ele><time>2026-03-31T23:30:22.998Z</time></trkpt><trkpt lat="49.01229197024112" lon="2.470256800679495"><ele>59.0</ele><time>2026-03-31T23:30:23.998Z</time></trkpt><trkpt lat="49.01237360914905" lon="2.470342884928413"><ele>59.0</ele><time>2026-03-31T23:30:24.998Z</time></trkpt><trkpt lat="49.01244742268388" lon="2.4704260872609374"><ele>59.00000000000001</ele><time>2026-03-31T23:30:26Z</time></trkpt><trkpt lat="49.01251056154658" lon="2.470513600097445"><ele>59.00000000000001</ele><time>2026-03-31T23:30:27Z</time></trkpt><trkpt lat="49.012560381783416" lon="2.470624935027873"><ele>59.0</ele><time>2026-03-31T23:30:28Z</time></trkpt><trkpt lat="49.01261635657224" lon="2.470700787026607"><ele>59.0</ele><time>2026-03-31T23:30:29Z</time></trkpt><trkpt lat="49.012593674310814" lon="2.470903201177044"><ele>59.2</ele><time>2026-03-31T23:30:30Z</time></trkpt><trkpt lat="49.01258539454157" lon="2.4710574943265513"><ele>59.400000000000006</ele><time>2026-03-31T23:30:31Z</time></trkpt><trkpt lat="49.01257483962782" lon="2.4712219279135073"><ele>59.6</ele><time>2026-03-31T23:30:32Z</time></trkpt><trkpt lat="49.012552282593525" lon="2.471395645436031"><ele>59.8</ele><time>2026-03-31T23:30:33Z</time></trkpt><trkpt lat="49.01252238954254" lon="2.4715757089425314"><ele>60.0</ele><time>2026-03-31T23:30:34Z</time></trkpt><trkpt lat="49.012488325550436" lon="2.4717515656249702"><ele>61.0</ele><time>2026-03-31T23:30:35Z</time></trkpt><trkpt lat="49.01245545366303" lon="2.471920538225972"><ele>62.0</ele><time>2026-03-31T23:30:36Z</time></trkpt><trkpt lat="49.01243330300085" lon="2.4721016573389307"><ele>63.0</ele><time>2026-03-31T23:30:37Z</time></trkpt><trkpt lat="49.01240541862905" lon="2.4722828794172345"><ele>64.0</ele><time>2026-03-31T23:30:38Z</time></trkpt><trkpt lat="49.012385090415734" lon="2.4724731065617553"><ele>65.0</ele><time>2026-03-31T23:30:39Z</time></trkpt><trkpt lat="49.012373390701434" lon="2.472667625611679"><ele>66.0</ele><time>2026-03-31T23:30:40Z</time></trkpt><trkpt lat="49.01242018195012" lon="2.4728443276177363"><ele>67.0</ele><time>2026-03-31T23:30:41Z</time></trkpt><trkpt lat="49.01237117344057" lon="2.4730460549872464"><ele>68.0</ele><time>2026-03-31T23:30:42Z</time></trkpt><trkpt lat="49.01236342133849" lon="2.4732354446554576"><ele>70.0</ele><time>2026-03-31T23:30:43Z</time></trkpt><trkpt lat="49.0123548411655" lon="2.473417799133239"><ele>72.0</ele><time>2026-03-31T23:30:44Z</time></trkpt><trkpt lat="49.01234262946918" lon="2.4736059698769957"><ele>74.0</ele><time>2026-03-31T23:30:45Z</time></trkpt><trkpt lat="49.012329096699766" lon="2.4738010261640566"><ele>76.0</ele><time>2026-03-31T23:30:46Z</time></trkpt><trkpt lat="49.01232038751764" lon="2.47398640912935"><ele>77.0</ele><time>2026-03-31T23:30:47Z</time></trkpt><trkpt lat="49.01230854376869" lon="2.4741748002244495"><ele>78.0</ele><time>2026-03-31T23:30:48Z</time></trkpt><trkpt lat="49.01229687647065" lon="2.4743644644016864"><ele>79.0</ele><time>2026-03-31T23:30:49Z</time></trkpt><trkpt lat="49.01228601630802" lon="2.4745573750236463"><ele>80.0</ele><time>2026-03-31T23:30:50Z</time></trkpt><trkpt lat="49.012269935214874" lon="2.474750023781099"><ele>80.25</ele><time>2026-03-31T23:30:51Z</time></trkpt><trkpt lat="49.01225519597679" lon="2.474942894881994"><ele>80.5</ele><time>2026-03-31T23:30:52Z</time></trkpt><trkpt lat="49.01223859312325" lon="2.4751325291472517"><ele>80.75</ele><time>2026-03-31T23:30:53Z</time></trkpt><trkpt lat="49.012220694333244" lon="2.4753238941959346"><ele>81.0</ele><time>2026-03-31T23:30:54Z</time></trkpt><trkpt lat="49.01218988617742" lon="2.475509363230678"><ele>82.0</ele><time>2026-03-31T23:30:55Z</time></trkpt><trkpt lat="49.012161471666346" lon="2.475694475378634"><ele>83.0</ele><time>2026-03-31T23:30:56Z</time></trkpt><trkpt lat="49.01212999000395" lon="2.47587478740418"><ele>84.0</ele><time>2026-03-31T23:30:57Z</time></trkpt><trkpt lat="49.01209714493535" lon="2.476052614465092"><ele>85.0</ele><time>2026-03-31T23:30:58Z</time></trkpt><trkpt lat="49.01206189435228" lon="2.4762309338463107"><ele>85.5</ele><time>2026-03-31T23:30:59Z</time></trkpt><trkpt lat="49.01202321262651" lon="2.4764131355007155"><ele>86.0</ele><time>2026-03-31T23:31:00Z</time></trkpt><trkpt lat="49.01197345933838" lon="2.476585516224425"><ele>86.5</ele><time>2026-03-31T23:31:01Z</time></trkpt><trkpt lat="49.01191597966927" lon="2.4767565297675707"><ele>87.0</ele><time>2026-03-31T23:31:02Z</time></trkpt><trkpt lat="49.0118571126493" lon="2.4769347405095314"><ele>87.0</ele><time>2026-03-31T23:31:03Z</time></trkpt><trkpt lat="49.01179095904036" lon="2.4771096322360218"><ele>87.0</ele><time>2026-03-31T23:31:04Z</time></trkpt><trkpt lat="49.01175038314034" lon="2.4773059028020366"><ele>87.0</ele><time>2026-03-31T23:31:05Z</time></trkpt><trkpt lat="49.01172397366173" lon="2.477476810880382"><ele>87.0</ele><time>2026-03-31T23:31:06Z</time></trkpt><trkpt lat="49.01169521134082" lon="2.477662698849402"><ele>87.0</ele><time>2026-03-31T23:31:07Z</time></trkpt><trkpt lat="49.01166118385133" lon="2.4778568576588813"><ele>87.0</ele><time>2026-03-31T23:31:08Z</time></trkpt><trkpt lat="49.01162419674972" lon="2.478041178815617"><ele>87.0</ele><time>2026-03-31T23:31:09Z</time></trkpt><trkpt lat="49.011593043651324" lon="2.478218646327419"><ele>87.0</ele><time>2026-03-31T23:31:10Z</time></trkpt><trkpt lat="49.011569422202136" lon="2.478407292161915"><ele>87.25</ele><time>2026-03-31T23:31:11Z</time></trkpt><trkpt lat="49.01154575330246" lon="2.478599083467203"><ele>87.5</ele><time>2026-03-31T23:31:11.999Z</time></trkpt><trkpt lat="49.01151680734155" lon="2.478787020180129"><ele>87.75</ele><time>2026-03-31T23:31:12.999Z</time></trkpt><trkpt lat="49.011490244760026" lon="2.478976321301852"><ele>88.0</ele><time>2026-03-31T23:31:13.999Z</time></trkpt><trkpt lat="49.01146802647778" lon="2.4791641433712783"><ele>88.75</ele><time>2026-03-31T23:31:14.999Z</time></trkpt><trkpt lat="49.011446404416944" lon="2.479355848367547"><ele>89.5</ele><time>2026-03-31T23:31:15.999Z</time></trkpt><trkpt lat="49.01142759284076" lon="2.479549753598668"><ele>90.25</ele><time>2026-03-31T23:31:16.999Z</time></trkpt><trkpt lat="49.01141025844003" lon="2.4797396439788946"><ele>91.0</ele><time>2026-03-31T23:31:17.999Z</time></trkpt><trkpt lat="49.01139433003236" lon="2.4799222216339993"><ele>91.25</ele><time>2026-03-31T23:31:18.999Z</time></trkpt><trkpt lat="49.01138344851418" lon="2.480109467780633"><ele>91.5</ele><time>2026-03-31T23:31:19.999Z</time></trkpt><trkpt lat="49.01137299489144" lon="2.4802969249492635"><ele>91.75</ele><time>2026-03-31T23:31:20.999Z</time></trkpt><trkpt lat="49.01136400136223" lon="2.4804881421625793"><ele>92.0</ele><time>2026-03-31T23:31:21.999Z</time></trkpt><trkpt lat="49.01134608072826" lon="2.480663022574069"><ele>92.25</ele><time>2026-03-31T23:31:22.999Z</time></trkpt><trkpt lat="49.011332249727346" lon="2.48084848807437"><ele>92.5</ele><time>2026-03-31T23:31:23.999Z</time></trkpt><trkpt lat="49.011319707462064" lon="2.481037019232847"><ele>92.75</ele><time>2026-03-31T23:31:24.999Z</time></trkpt><trkpt lat="49.01131118395104" lon="2.4812103013264712"><ele>93.0</ele><time>2026-03-31T23:31:25.999Z</time></trkpt><trkpt lat="49.01129426117223" lon="2.4813735539650104"><ele>93.0</ele><time>2026-03-31T23:31:26.999Z</time></trkpt><trkpt lat="49.01128194199274" lon="2.481527611444993"><ele>93.0</ele><time>2026-03-31T23:31:27.999Z</time></trkpt><trkpt lat="49.01126805673496" lon="2.4816771277226723"><ele>93.0</ele><time>2026-03-31T23:31:28.999Z</time></trkpt><trkpt lat="49.01126027951234" lon="2.481812301842571"><ele>93.0</ele><time>2026-03-31T23:31:29.999Z</time></trkpt><trkpt lat="49.01125381278278" lon="2.4819400945789147"><ele>93.0</ele><time>2026-03-31T23:31:30.999Z</time></trkpt><trkpt lat="49.011248578664706" lon="2.4820651688670567"><ele>93.60000000000001</ele><time>2026-03-31T23:31:31.999Z</time></trkpt><trkpt lat="49.01124528783904" lon="2.4821844079693047"><ele>94.2</ele><time>2026-03-31T23:31:32.999Z</time></trkpt><trkpt lat="49.01123820380142" lon="2.482294393438437"><ele>94.8</ele><time>2026-03-31T23:31:33.999Z</time></trkpt><trkpt lat="49.011236587526426" lon="2.4823962446939505"><ele>95.4</ele><time>2026-03-31T23:31:34.999Z</time></trkpt><trkpt lat="49.01122183115056" lon="2.482572101561023"><ele>96.0</ele><time>2026-03-31T23:31:36.999Z</time></trkpt><trkpt lat="49.011208652475744" lon="2.4827819890555216"><ele>96.0</ele><time>2026-03-31T23:31:38.999Z</time></trkpt><trkpt lat="49.01119712497259" lon="2.4829085265869"><ele>96.0</ele><time>2026-03-31T23:31:39.999Z</time></trkpt><trkpt lat="49.011192465126" lon="2.4830396973704922"><ele>96.0</ele><time>2026-03-31T23:31:40.999Z</time></trkpt><trkpt lat="49.01118437085723" lon="2.4831769382441338"><ele>96.0</ele><time>2026-03-31T23:31:41.999Z</time></trkpt><trkpt lat="49.01117342046259" lon="2.483329906251494"><ele>96.0</ele><time>2026-03-31T23:31:42.999Z</time></trkpt><trkpt lat="49.01116366497456" lon="2.4834844846455564"><ele>96.19999999999999</ele><time>2026-03-31T23:31:43.999Z</time></trkpt><trkpt lat="49.01115068572946" lon="2.483642565916636"><ele>96.39999999999999</ele><time>2026-03-31T23:31:44.999Z</time></trkpt><trkpt lat="49.01114093064604" lon="2.4837982205273414"><ele>96.6</ele><time>2026-03-31T23:31:45.999Z</time></trkpt><trkpt lat="49.011128575768986" lon="2.48395815914712"><ele>96.8</ele><time>2026-03-31T23:31:46.999Z</time></trkpt><trkpt lat="49.01111079460065" lon="2.4841218429411787"><ele>97.0</ele><time>2026-03-31T23:31:47.999Z</time></trkpt><trkpt lat="49.01110293077336" lon="2.4842889895269846"><ele>97.0</ele><time>2026-03-31T23:31:48.999Z</time></trkpt><trkpt lat="49.01108416209089" lon="2.4844525871035295"><ele>97.0</ele><time>2026-03-31T23:31:49.999Z</time></trkpt><trkpt lat="49.01106394044239" lon="2.4846167895772977"><ele>97.0</ele><time>2026-03-31T23:31:50.999Z</time></trkpt><trkpt lat="49.011048910853475" lon="2.484781271454055"><ele>97.0</ele><time>2026-03-31T23:31:51.999Z</time></trkpt><trkpt lat="49.01102427262948" lon="2.484954255266137"><ele>97.0</ele><time>2026-03-31T23:31:52.999Z</time></trkpt><trkpt lat="49.010995783946356" lon="2.485124083427428"><ele>97.0</ele><time>2026-03-31T23:31:53.999Z</time></trkpt><trkpt lat="49.010980872119156" lon="2.4852877919167704"><ele>97.0</ele><time>2026-03-31T23:31:54.999Z</time></trkpt><trkpt lat="49.010968852671986" lon="2.4854491543310564"><ele>97.0</ele><time>2026-03-31T23:31:55.999Z</time></trkpt><trkpt lat="49.01094818593932" lon="2.4856024876145093"><ele>97.0</ele><time>2026-03-31T23:31:56.999Z</time></trkpt><trkpt lat="49.010928086834454" lon="2.485745556286975"><ele>97.0</ele><time>2026-03-31T23:31:57.999Z</time></trkpt><trkpt lat="49.010912721052115" lon="2.485881854362048"><ele>97.00000000000001</ele><time>2026-03-31T23:31:58.999Z</time></trkpt><trkpt lat="49.01089546507777" lon="2.4860067862742987"><ele>97.0</ele><time>2026-03-31T23:31:59.999Z</time></trkpt><trkpt lat="49.01088061219503" lon="2.4861175547779424"><ele>97.0</ele><time>2026-03-31T23:32:00.999Z</time></trkpt><trkpt lat="49.01087078334267" lon="2.486235580749938"><ele>97.0</ele><time>2026-03-31T23:32:01.999Z</time></trkpt><trkpt lat="49.01085374736586" lon="2.486363572215019"><ele>97.00000000000001</ele><time>2026-03-31T23:32:02.999Z</time></trkpt><trkpt lat="49.01083673950173" lon="2.486499732124168"><ele>97.0</ele><time>2026-03-31T23:32:03.999Z</time></trkpt><trkpt lat="49.0108266055828" lon="2.4866338835711135"><ele>97.39999999999999</ele><time>2026-03-31T23:32:04.999Z</time></trkpt><trkpt lat="49.01081758262393" lon="2.4867668555803957"><ele>97.8</ele><time>2026-03-31T23:32:05.999Z</time></trkpt><trkpt lat="49.01080443838613" lon="2.4868962864647"><ele>98.2</ele><time>2026-03-31T23:32:06.999Z</time></trkpt><trkpt lat="49.01079121650473" lon="2.4870357100769342"><ele>98.6</ele><time>2026-03-31T23:32:07.999Z</time></trkpt><trkpt lat="49.010775008880906" lon="2.4871767117727153"><ele>99.0</ele><time>2026-03-31T23:32:08.998Z</time></trkpt><trkpt lat="49.01076081494711" lon="2.487314909415019"><ele>99.16666666666667</ele><time>2026-03-31T23:32:09.998Z</time></trkpt><trkpt lat="49.01074746882379" lon="2.4874496206761516"><ele>99.33333333333334</ele><time>2026-03-31T23:32:10.998Z</time></trkpt><trkpt lat="49.01073709009115" lon="2.487580744871722"><ele>99.5</ele><time>2026-03-31T23:32:11.998Z</time></trkpt><trkpt lat="49.01072748691581" lon="2.487707306631291"><ele>99.66666666666667</ele><time>2026-03-31T23:32:12.998Z</time></trkpt><trkpt lat="49.0107340174248" lon="2.487826130767541"><ele>99.83333333333334</ele><time>2026-03-31T23:32:13.998Z</time></trkpt><trkpt lat="49.01074536093723" lon="2.4879479535298104"><ele>100.0</ele><time>2026-03-31T23:32:14.998Z</time></trkpt><trkpt lat="49.01075275919083" lon="2.4880700866343246"><ele>100.16666666666667</ele><time>2026-03-31T23:32:15.998Z</time></trkpt><trkpt lat="49.01074650148072" lon="2.4881893198509406"><ele>100.33333333333334</ele><time>2026-03-31T23:32:16.998Z</time></trkpt><trkpt lat="49.010714651917716" lon="2.4882978610055977"><ele>100.5</ele><time>2026-03-31T23:32:17.998Z</time></trkpt><trkpt lat="49.01065053273458" lon="2.4883943266922564"><ele>100.66666666666666</ele><time>2026-03-31T23:32:18.998Z</time></trkpt><trkpt lat="49.01059704792203" lon="2.4884966648444893"><ele>100.83333333333333</ele><time>2026-03-31T23:32:19.998Z</time></trkpt><trkpt lat="49.01056508737165" lon="2.4886110158258195"><ele>101.0</ele><time>2026-03-31T23:32:20.998Z</time></trkpt><trkpt lat="49.010559709410174" lon="2.488746455436248"><ele>101.19999999999999</ele><time>2026-03-31T23:32:21.998Z</time></trkpt><trkpt lat="49.010577036377846" lon="2.4888786684736317"><ele>101.39999999999999</ele><time>2026-03-31T23:32:22.998Z</time></trkpt><trkpt lat="49.01060715639794" lon="2.489011977218159"><ele>101.6</ele><time>2026-03-31T23:32:23.998Z</time></trkpt><trkpt lat="49.01064888242764" lon="2.4891387369733717"><ele>101.8</ele><time>2026-03-31T23:32:24.998Z</time></trkpt><trkpt lat="49.01063841838757" lon="2.4893079612234517"><ele>102.0</ele><time>2026-03-31T23:32:25.998Z</time></trkpt><trkpt lat="49.01062974670818" lon="2.4894695307599664"><ele>102.0</ele><time>2026-03-31T23:32:26.998Z</time></trkpt><trkpt lat="49.010603236182014" lon="2.4896383343208273"><ele>102.0</ele><time>2026-03-31T23:32:27.998Z</time></trkpt><trkpt lat="49.01057153385526" lon="2.4898226202561333"><ele>102.0</ele><time>2026-03-31T23:32:28.998Z</time></trkpt><trkpt lat="49.010529719369906" lon="2.4900116347359353"><ele>102.0</ele><time>2026-03-31T23:32:29.998Z</time></trkpt><trkpt lat="49.010490932670365" lon="2.4902014984374157"><ele>102.0</ele><time>2026-03-31T23:32:30.998Z</time></trkpt><trkpt lat="49.01045365543344" lon="2.490404942962451"><ele>102.0</ele><time>2026-03-31T23:32:32Z</time></trkpt><trkpt lat="49.0103954426899" lon="2.490619567711798"><ele>102.0</ele><time>2026-03-31T23:32:33Z</time></trkpt><trkpt lat="49.0103514415191" lon="2.4908463094494526"><ele>102.0</ele><time>2026-03-31T23:32:34Z</time></trkpt><trkpt lat="49.01030567925722" lon="2.4910611899141624"><ele>102.0</ele><time>2026-03-31T23:32:35Z</time></trkpt><trkpt lat="49.010259549569064" lon="2.491264356270913"><ele>102.0</ele><time>2026-03-31T23:32:36Z</time></trkpt><trkpt lat="49.01021579600404" lon="2.4914668956850403"><ele>102.0</ele><time>2026-03-31T23:32:37Z</time></trkpt><trkpt lat="49.01017959880196" lon="2.4916667679412945"><ele>102.0</ele><time>2026-03-31T23:32:38Z</time></trkpt><trkpt lat="49.010140155820274" lon="2.491864499343883"><ele>102.0</ele><time>2026-03-31T23:32:39Z</time></trkpt><trkpt lat="49.01009704295097" lon="2.4920596060676568"><ele>102.0</ele><time>2026-03-31T23:32:40Z</time></trkpt><trkpt lat="49.0100551274114" lon="2.4922539075379904"><ele>102.0</ele><time>2026-03-31T23:32:41Z</time></trkpt><trkpt lat="49.01001554207527" lon="2.492440478009939"><ele>102.0</ele><time>2026-03-31T23:32:42Z</time></trkpt><trkpt lat="49.00997909808836" lon="2.4926178431914696"><ele>101.6</ele><time>2026-03-31T23:32:43Z</time></trkpt><trkpt lat="49.00994302930407" lon="2.4927767115200385"><ele>101.19999999999999</ele><time>2026-03-31T23:32:44Z</time></trkpt><trkpt lat="49.009907575600316" lon="2.4929257463895307"><ele>100.8</ele><time>2026-03-31T23:32:45Z</time></trkpt><trkpt lat="49.00987303250951" lon="2.4930544196490008"><ele>100.4</ele><time>2026-03-31T23:32:46Z</time></trkpt><trkpt lat="49.00983949080092" lon="2.493169988885673"><ele>100.0</ele><time>2026-03-31T23:32:47Z</time></trkpt><trkpt lat="49.0098004885422" lon="2.493287688659581"><ele>100.00000000000001</ele><time>2026-03-31T23:32:48Z</time></trkpt><trkpt lat="49.00975162577902" lon="2.4933971410547184"><ele>100.0</ele><time>2026-03-31T23:32:49Z</time></trkpt><trkpt lat="49.00968690739654" lon="2.4934758360241336"><ele>100.0</ele><time>2026-03-31T23:32:50Z</time></trkpt><trkpt lat="49.00962426896931" lon="2.4935221281779154"><ele>100.0</ele><time>2026-03-31T23:32:51Z</time></trkpt><trkpt lat="49.00956654103482" lon="2.493574764509805"><ele>100.00000000000001</ele><time>2026-03-31T23:32:52Z</time></trkpt><trkpt lat="49.009502282449866" lon="2.4936177201401355"><ele>100.0</ele><time>2026-03-31T23:32:53Z</time></trkpt><trkpt lat="49.00945813584067" lon="2.493710362731785"><ele>99.85714285714286</ele><time>2026-03-31T23:32:54Z</time></trkpt><trkpt lat="49.00944678731179" lon="2.493827049500613"><ele>99.71428571428572</ele><time>2026-03-31T23:32:55Z</time></trkpt><trkpt lat="49.009442189844876" lon="2.493942317910513"><ele>99.57142857142858</ele><time>2026-03-31T23:32:56Z</time></trkpt><trkpt lat="49.009450754702435" lon="2.4940642004317777"><ele>99.42857142857143</ele><time>2026-03-31T23:32:57Z</time></trkpt><trkpt lat="49.00948151735416" lon="2.494173753555814"><ele>99.28571428571428</ele><time>2026-03-31T23:32:58Z</time></trkpt><trkpt lat="49.00952661174805" lon="2.4942607119732356"><ele>99.14285714285715</ele><time>2026-03-31T23:32:59Z</time></trkpt><trkpt lat="49.00957711589248" lon="2.494322558860153"><ele>99.0</ele><time>2026-03-31T23:33:00Z</time></trkpt><trkpt lat="49.00968031530938" lon="2.4943795857451247"><ele>99.0</ele><time>2026-03-31T23:33:02Z</time></trkpt><trkpt lat="49.00979891114908" lon="2.4943581318310537"><ele>99.0</ele><time>2026-03-31T23:33:04Z</time></trkpt><trkpt lat="49.00991265963014" lon="2.4942710470427323"><ele>99.0</ele><time>2026-03-31T23:33:06Z</time></trkpt><trkpt lat="49.00995711993911" lon="2.4941989755124445"><ele>99.0</ele><time>2026-03-31T23:33:07Z</time></trkpt><trkpt lat="49.009996611093385" lon="2.494109736314262"><ele>99.0</ele><time>2026-03-31T23:33:08Z</time></trkpt><trkpt lat="49.010027003283504" lon="2.4940093384611686"><ele>99.2</ele><time>2026-03-31T23:33:09Z</time></trkpt><trkpt lat="49.010049119014774" lon="2.4938911618628583"><ele>99.4</ele><time>2026-03-31T23:33:10Z</time></trkpt><trkpt lat="49.01007778746171" lon="2.4937558907041217"><ele>99.6</ele><time>2026-03-31T23:33:11Z</time></trkpt><trkpt lat="49.0101289912218" lon="2.4936347968340136"><ele>99.8</ele><time>2026-03-31T23:33:12Z</time></trkpt><trkpt lat="49.01018937908109" lon="2.4935188963197765"><ele>100.0</ele><time>2026-03-31T23:33:13Z</time></trkpt><trkpt lat="49.01025953089409" lon="2.493396472685412"><ele>100.25</ele><time>2026-03-31T23:33:14Z</time></trkpt><trkpt lat="49.01034007641241" lon="2.493273176693477"><ele>100.5</ele><time>2026-03-31T23:33:15Z</time></trkpt><trkpt lat="49.010426900818814" lon="2.493140246677252"><ele>100.75</ele><time>2026-03-31T23:33:15.999Z</time></trkpt><trkpt lat="49.01050996058882" lon="2.493004784470446"><ele>101.0</ele><time>2026-03-31T23:33:16.999Z</time></trkpt><trkpt lat="49.010590966433874" lon="2.492868744701319"><ele>101.25</ele><time>2026-03-31T23:33:17.999Z</time></trkpt><trkpt lat="49.01067462264758" lon="2.492728621696518"><ele>101.5</ele><time>2026-03-31T23:33:18.999Z</time></trkpt><trkpt lat="49.010758795763884" lon="2.4925911960566385"><ele>101.75</ele><time>2026-03-31T23:33:19.999Z</time></trkpt><trkpt lat="49.01084857748482" lon="2.492465166511432"><ele>102.0</ele><time>2026-03-31T23:33:20.999Z</time></trkpt><trkpt lat="49.01095379796065" lon="2.4923507737531043"><ele>102.25</ele><time>2026-03-31T23:33:21.999Z</time></trkpt><trkpt lat="49.01106063219052" lon="2.4922526113564016"><ele>102.5</ele><time>2026-03-31T23:33:22.999Z</time></trkpt><trkpt lat="49.01117855330844" lon="2.4921688621122535"><ele>102.75</ele><time>2026-03-31T23:33:23.999Z</time></trkpt><trkpt lat="49.01129847190498" lon="2.492108638439161"><ele>103.0</ele><time>2026-03-31T23:33:24.999Z</time></trkpt><trkpt lat="49.011423035710486" lon="2.492068480116244"><ele>103.0</ele><time>2026-03-31T23:33:25.999Z</time></trkpt><trkpt lat="49.011552842221306" lon="2.4920546266054076"><ele>103.0</ele><time>2026-03-31T23:33:26.999Z</time></trkpt><trkpt lat="49.01168881787716" lon="2.492067664282035"><ele>103.0</ele><time>2026-03-31T23:33:27.999Z</time></trkpt><trkpt lat="49.0118304029952" lon="2.4920948893515478"><ele>103.0</ele><time>2026-03-31T23:33:28.999Z</time></trkpt><trkpt lat="49.01198634582791" lon="2.4921331646569733"><ele>103.33333333333334</ele><time>2026-03-31T23:33:29.999Z</time></trkpt><trkpt lat="49.0121421496773" lon="2.492166001269571"><ele>103.66666666666666</ele><time>2026-03-31T23:33:30.999Z</time></trkpt><trkpt lat="49.012318026942125" lon="2.492207522983469"><ele>104.0</ele><time>2026-03-31T23:33:31.999Z</time></trkpt><trkpt lat="49.01250223369875" lon="2.4922532174935306"><ele>104.0</ele><time>2026-03-31T23:33:32.999Z</time></trkpt><trkpt lat="49.01269669016107" lon="2.4923070914063112"><ele>104.0</ele><time>2026-03-31T23:33:33.999Z</time></trkpt><trkpt lat="49.0128938063324" lon="2.4923242130942254"><ele>104.0</ele><time>2026-03-31T23:33:34.999Z</time></trkpt><trkpt lat="49.0130892778138" lon="2.4924345620291173"><ele>104.0</ele><time>2026-03-31T23:33:35.999Z</time></trkpt><trkpt lat="49.01329211582144" lon="2.4925023385230407"><ele>104.0</ele><time>2026-03-31T23:33:36.999Z</time></trkpt><trkpt lat="49.01348920644428" lon="2.492570961882161"><ele>104.0</ele><time>2026-03-31T23:33:37.999Z</time></trkpt><trkpt lat="49.01368816746515" lon="2.492638102713846"><ele>104.0</ele><time>2026-03-31T23:33:38.999Z</time></trkpt><trkpt lat="49.01388314136672" lon="2.492708980406708"><ele>104.0</ele><time>2026-03-31T23:33:39.999Z</time></trkpt><trkpt lat="49.01407816233198" lon="2.4927851824245684"><ele>104.0</ele><time>2026-03-31T23:33:40.999Z</time></trkpt><trkpt lat="49.01427487469283" lon="2.492859448849243"><ele>104.0</ele><time>2026-03-31T23:33:41.999Z</time></trkpt><trkpt lat="49.01447168242289" lon="2.4929297425509955"><ele>104.0</ele><time>2026-03-31T23:33:42.999Z</time></trkpt><trkpt lat="49.014665634373806" lon="2.4929968723362275"><ele>104.0</ele><time>2026-03-31T23:33:43.999Z</time></trkpt><trkpt lat="49.014856924857725" lon="2.493064833876684"><ele>104.33333333333333</ele><time>2026-03-31T23:33:44.999Z</time></trkpt><trkpt lat="49.01505087651291" lon="2.4931365841978046"><ele>104.66666666666666</ele><time>2026-03-31T23:33:45.999Z</time></trkpt><trkpt lat="49.01524948867341" lon="2.4932084850460723"><ele>105.0</ele><time>2026-03-31T23:33:46.999Z</time></trkpt><trkpt lat="49.015443234384584" lon="2.49328438220748"><ele>105.0</ele><time>2026-03-31T23:33:47.999Z</time></trkpt><trkpt lat="49.01564267101555" lon="2.4933655204092804"><ele>105.0</ele><time>2026-03-31T23:33:48.999Z</time></trkpt><trkpt lat="49.015841382377054" lon="2.4934477138410402"><ele>105.0</ele><time>2026-03-31T23:33:49.999Z</time></trkpt><trkpt lat="49.01604000396666" lon="2.493536445959999"><ele>105.0</ele><time>2026-03-31T23:33:50.999Z</time></trkpt><trkpt lat="49.01624041917202" lon="2.493637485714986"><ele>105.0</ele><time>2026-03-31T23:33:51.999Z</time></trkpt><trkpt lat="49.016436943220754" lon="2.4937476868617865"><ele>105.0</ele><time>2026-03-31T23:33:52.999Z</time></trkpt><trkpt lat="49.016636012589586" lon="2.4938653592741353"><ele>105.0</ele><time>2026-03-31T23:33:53.999Z</time></trkpt><trkpt lat="49.0168326232742" lon="2.4939849921819865"><ele>105.0</ele><time>2026-03-31T23:33:54.999Z</time></trkpt><trkpt lat="49.01702427252984" lon="2.4941137786594427"><ele>105.0</ele><time>2026-03-31T23:33:55.999Z</time></trkpt><trkpt lat="49.01721492081257" lon="2.4942336490800714"><ele>105.0</ele><time>2026-03-31T23:33:56.999Z</time></trkpt><trkpt lat="49.01740078380316" lon="2.4943530818378847"><ele>105.0</ele><time>2026-03-31T23:33:57.999Z</time></trkpt><trkpt lat="49.01758661096361" lon="2.4944714318466508"><ele>105.0</ele><time>2026-03-31T23:33:58.999Z</time></trkpt><trkpt lat="49.017767900132625" lon="2.4945888653136734"><ele>105.33333333333334</ele><time>2026-03-31T23:33:59.999Z</time></trkpt><trkpt lat="49.01795318998693" lon="2.494706925367254"><ele>105.66666666666667</ele><time>2026-03-31T23:34:00.999Z</time></trkpt><trkpt lat="49.01813625306574" lon="2.49482349674863"><ele>106.0</ele><time>2026-03-31T23:34:01.999Z</time></trkpt><trkpt lat="49.018323976952495" lon="2.4949389356127556"><ele>106.0</ele><time>2026-03-31T23:34:02.999Z</time></trkpt><trkpt lat="49.018511361114754" lon="2.495059152365269"><ele>106.0</ele><time>2026-03-31T23:34:03.999Z</time></trkpt><trkpt lat="49.01869345433296" lon="2.495177972236555"><ele>106.0</ele><time>2026-03-31T23:34:04.999Z</time></trkpt><trkpt lat="49.01888100528539" lon="2.4952975411835796"><ele>106.0</ele><time>2026-03-31T23:34:05.999Z</time></trkpt><trkpt lat="49.01906661391268" lon="2.4954149473936966"><ele>106.0</ele><time>2026-03-31T23:34:06.999Z</time></trkpt><trkpt lat="49.019251465980986" lon="2.495531656891795"><ele>106.0</ele><time>2026-03-31T23:34:07.999Z</time></trkpt><trkpt lat="49.01943633678205" lon="2.4956509592418854"><ele>105.33333333333334</ele><time>2026-03-31T23:34:08.999Z</time></trkpt><trkpt lat="49.01962130756665" lon="2.4957740103684047"><ele>104.66666666666666</ele><time>2026-03-31T23:34:09.999Z</time></trkpt><trkpt lat="49.01980684645978" lon="2.495890887061951"><ele>104.0</ele><time>2026-03-31T23:34:10.999Z</time></trkpt><trkpt lat="49.01999160935175" lon="2.4960086502788803"><ele>104.0</ele><time>2026-03-31T23:34:11.999Z</time></trkpt><trkpt lat="49.02017848927601" lon="2.4961287270496424"><ele>104.0</ele><time>2026-03-31T23:34:12.999Z</time></trkpt><trkpt lat="49.020364549551495" lon="2.4962464503943513"><ele>104.0</ele><time>2026-03-31T23:34:13.998Z</time></trkpt><trkpt lat="49.020551006419815" lon="2.4963670552619512"><ele>104.33333333333333</ele><time>2026-03-31T23:34:14.998Z</time></trkpt><trkpt lat="49.02073675139857" lon="2.4964899896940156"><ele>104.66666666666666</ele><time>2026-03-31T23:34:15.998Z</time></trkpt><trkpt lat="49.02092169767456" lon="2.4966103486381335"><ele>105.0</ele><time>2026-03-31T23:34:16.998Z</time></trkpt><trkpt lat="49.02110540720561" lon="2.4967276565398233"><ele>105.0</ele><time>2026-03-31T23:34:17.998Z</time></trkpt><trkpt lat="49.02128871799141" lon="2.496845926714457"><ele>105.0</ele><time>2026-03-31T23:34:18.998Z</time></trkpt><trkpt lat="49.02147476728865" lon="2.496966145968581"><ele>105.0</ele><time>2026-03-31T23:34:19.998Z</time></trkpt><trkpt lat="49.02166355415241" lon="2.4970852049439025"><ele>105.0</ele><time>2026-03-31T23:34:20.998Z</time></trkpt><trkpt lat="49.02184720779688" lon="2.4972058791272387"><ele>105.0</ele><time>2026-03-31T23:34:21.998Z</time></trkpt><trkpt lat="49.02202958696862" lon="2.497323823082734"><ele>105.0</ele><time>2026-03-31T23:34:22.998Z</time></trkpt><trkpt lat="49.02221279318908" lon="2.49743751501417"><ele>105.0</ele><time>2026-03-31T23:34:23.998Z</time></trkpt><trkpt lat="49.02239099331192" lon="2.4975569681830647"><ele>105.0</ele><time>2026-03-31T23:34:24.998Z</time></trkpt><trkpt lat="49.02257114052938" lon="2.4976745108756275"><ele>105.0</ele><time>2026-03-31T23:34:25.998Z</time></trkpt><trkpt lat="49.022752705984836" lon="2.4977887779195327"><ele>104.33333333333334</ele><time>2026-03-31T23:34:26.998Z</time></trkpt><trkpt lat="49.022937100628035" lon="2.4979003952035046"><ele>103.66666666666667</ele><time>2026-03-31T23:34:27.998Z</time></trkpt><trkpt lat="49.02311979956726" lon="2.4980145841221857"><ele>103.0</ele><time>2026-03-31T23:34:28.998Z</time></trkpt><trkpt lat="49.023304624623634" lon="2.498132123320166"><ele>102.33333333333334</ele><time>2026-03-31T23:34:29.998Z</time></trkpt><trkpt lat="49.023488372764035" lon="2.498252283208898"><ele>101.66666666666666</ele><time>2026-03-31T23:34:30.998Z</time></trkpt><trkpt lat="49.02367027219271" lon="2.498375615191698"><ele>101.0</ele><time>2026-03-31T23:34:31.998Z</time></trkpt><trkpt lat="49.02384770781063" lon="2.4985076944987066"><ele>101.0</ele><time>2026-03-31T23:34:32.998Z</time></trkpt><trkpt lat="49.024025386765594" lon="2.4986516513428896"><ele>101.0</ele><time>2026-03-31T23:34:33.998Z</time></trkpt><trkpt lat="49.02420180591702" lon="2.498801235476771"><ele>101.0</ele><time>2026-03-31T23:34:34.998Z</time></trkpt><trkpt lat="49.02438185905864" lon="2.4989471479934133"><ele>101.33333333333333</ele><time>2026-03-31T23:34:35.998Z</time></trkpt><trkpt lat="49.0245626426483" lon="2.4990962910012584"><ele>101.66666666666666</ele><time>2026-03-31T23:34:36.998Z</time></trkpt><trkpt lat="49.024738838025925" lon="2.49924120015619"><ele>102.0</ele><time>2026-03-31T23:34:38Z</time></trkpt><trkpt lat="49.024914375535616" lon="2.4993797576064036"><ele>102.0</ele><time>2026-03-31T23:34:39Z</time></trkpt><trkpt lat="49.02508866063698" lon="2.4995155265179823"><ele>102.0</ele><time>2026-03-31T23:34:40Z</time></trkpt><trkpt lat="49.02526345930237" lon="2.499645441539134"><ele>102.0</ele><time>2026-03-31T23:34:41Z</time></trkpt><trkpt lat="49.0254398198211" lon="2.4997628769932407"><ele>102.0</ele><time>2026-03-31T23:34:42Z</time></trkpt><trkpt lat="49.02561958572535" lon="2.4998530884076415"><ele>102.0</ele><time>2026-03-31T23:34:43Z</time></trkpt><trkpt lat="49.02580430801134" lon="2.4999215585367085"><ele>102.0</ele><time>2026-03-31T23:34:44Z</time></trkpt><trkpt lat="49.025992875609234" lon="2.4999703496964214"><ele>102.0</ele><time>2026-03-31T23:34:45Z</time></trkpt><trkpt lat="49.026183810069774" lon="2.4999981647424074"><ele>102.0</ele><time>2026-03-31T23:34:46Z</time></trkpt><trkpt lat="49.02637623721642" lon="2.5000003897506815"><ele>102.0</ele><time>2026-03-31T23:34:47Z</time></trkpt><trkpt lat="49.02657001757858" lon="2.499979366639177"><ele>101.0</ele><time>2026-03-31T23:34:48Z</time></trkpt><trkpt lat="49.02675808314585" lon="2.4999316812362733"><ele>100.0</ele><time>2026-03-31T23:34:49Z</time></trkpt><trkpt lat="49.026937075336726" lon="2.4998806667512663"><ele>99.0</ele><time>2026-03-31T23:34:50Z</time></trkpt><trkpt lat="49.02710776785197" lon="2.4998211740154836"><ele>99.0</ele><time>2026-03-31T23:34:51Z</time></trkpt><trkpt lat="49.027272393229914" lon="2.4997698682332143"><ele>99.0</ele><time>2026-03-31T23:34:52Z</time></trkpt><trkpt lat="49.027430738923066" lon="2.499729435528488"><ele>99.0</ele><time>2026-03-31T23:34:53Z</time></trkpt><trkpt lat="49.027588445702506" lon="2.499701783376104"><ele>98.75</ele><time>2026-03-31T23:34:54Z</time></trkpt><trkpt lat="49.02774230830224" lon="2.4996836737452877"><ele>98.5</ele><time>2026-03-31T23:34:55Z</time></trkpt><trkpt lat="49.027888796763236" lon="2.499679855064999"><ele>98.25</ele><time>2026-03-31T23:34:56Z</time></trkpt><trkpt lat="49.028026545292185" lon="2.4996921829557164"><ele>98.0</ele><time>2026-03-31T23:34:57Z</time></trkpt><trkpt lat="49.028155368477286" lon="2.4997165983911556"><ele>98.0</ele><time>2026-03-31T23:34:58Z</time></trkpt><trkpt lat="49.02827730651783" lon="2.4997468437336257"><ele>98.0</ele><time>2026-03-31T23:34:59Z</time></trkpt><trkpt lat="49.02839181967511" lon="2.49977950476465"><ele>98.0</ele><time>2026-03-31T23:35:00Z</time></trkpt><trkpt lat="49.028496581200535" lon="2.499808004300891"><ele>98.0</ele><time>2026-03-31T23:35:01Z</time></trkpt><trkpt lat="49.0285835326799" lon="2.4998351609040186"><ele>98.0</ele><time>2026-03-31T23:35:02Z</time></trkpt><trkpt lat="49.028662604832206" lon="2.4998794421549526"><ele>97.99999999999999</ele><time>2026-03-31T23:35:03Z</time></trkpt><trkpt lat="49.028719616122096" lon="2.499956426373175"><ele>98.0</ele><time>2026-03-31T23:35:04Z</time></trkpt><trkpt lat="49.0287710226939" lon="2.500060359512038"><ele>98.0</ele><time>2026-03-31T23:35:05Z</time></trkpt><trkpt lat="49.02882112911989" lon="2.5001717507009418"><ele>98.0</ele><time>2026-03-31T23:35:06Z</time></trkpt><trkpt lat="49.0288684313533" lon="2.500291715043854"><ele>97.99999999999999</ele><time>2026-03-31T23:35:07Z</time></trkpt><trkpt lat="49.028925572223855" lon="2.5004046433438027"><ele>98.0</ele><time>2026-03-31T23:35:08Z</time></trkpt><trkpt lat="49.028993553299834" lon="2.500499910367677"><ele>98.0</ele><time>2026-03-31T23:35:09Z</time></trkpt><trkpt lat="49.029072323559994" lon="2.5005746643568605"><ele>98.0</ele><time>2026-03-31T23:35:10Z</time></trkpt><trkpt lat="49.02916294346013" lon="2.500628094147769"><ele>98.0</ele><time>2026-03-31T23:35:11Z</time></trkpt><trkpt lat="49.0292568942381" lon="2.500665453895951"><ele>98.0</ele><time>2026-03-31T23:35:12Z</time></trkpt><trkpt lat="49.02935369643038" lon="2.500691055880471"><ele>98.0</ele><time>2026-03-31T23:35:13Z</time></trkpt><trkpt lat="49.02945266025163" lon="2.5006939457331008"><ele>98.0</ele><time>2026-03-31T23:35:14Z</time></trkpt><trkpt lat="49.02954739136086" lon="2.500672899623395"><ele>98.0</ele><time>2026-03-31T23:35:15Z</time></trkpt><trkpt lat="49.02964019426453" lon="2.5006355254269943"><ele>98.0</ele><time>2026-03-31T23:35:16Z</time></trkpt><trkpt lat="49.029732887662206" lon="2.5005825491166433"><ele>98.0</ele><time>2026-03-31T23:35:17Z</time></trkpt><trkpt lat="49.02982520819257" lon="2.5005112797987654"><ele>98.0</ele><time>2026-03-31T23:35:18Z</time></trkpt><trkpt lat="49.02991714507533" lon="2.500444139043038"><ele>98.2</ele><time>2026-03-31T23:35:19Z</time></trkpt><trkpt lat="49.030011986974294" lon="2.5004002654573654"><ele>98.4</ele><time>2026-03-31T23:35:20Z</time></trkpt><trkpt lat="49.03010442052414" lon="2.5003840064397025"><ele>98.60000000000001</ele><time>2026-03-31T23:35:21Z</time></trkpt><trkpt lat="49.030199170762366" lon="2.500404906069272"><ele>98.80000000000001</ele><time>2026-03-31T23:35:21.999Z</time></trkpt><trkpt lat="49.03029046857181" lon="2.500444038122055"><ele>99.0</ele><time>2026-03-31T23:35:22.999Z</time></trkpt><trkpt lat="49.03037692680254" lon="2.500512066776434"><ele>99.0</ele><time>2026-03-31T23:35:23.999Z</time></trkpt><trkpt lat="49.03045964540335" lon="2.5006070583538964"><ele>99.0</ele><time>2026-03-31T23:35:24.999Z</time></trkpt><trkpt lat="49.03054787706452" lon="2.500722023566827"><ele>99.0</ele><time>2026-03-31T23:35:25.999Z</time></trkpt><trkpt lat="49.03063647692825" lon="2.5008610011870815"><ele>99.0</ele><time>2026-03-31T23:35:26.999Z</time></trkpt><trkpt lat="49.03072659681628" lon="2.50102454312101"><ele>99.66666666666666</ele><time>2026-03-31T23:35:27.999Z</time></trkpt><trkpt lat="49.03081640929692" lon="2.501194898035853"><ele>100.33333333333333</ele><time>2026-03-31T23:35:28.999Z</time></trkpt><trkpt lat="49.030912878106065" lon="2.501393348684908"><ele>101.0</ele><time>2026-03-31T23:35:29.999Z</time></trkpt><trkpt lat="49.031004499855314" lon="2.5016067158891473"><ele>101.0</ele><time>2026-03-31T23:35:30.999Z</time></trkpt><trkpt lat="49.03109478387116" lon="2.501837153118359"><ele>101.0</ele><time>2026-03-31T23:35:31.999Z</time></trkpt><trkpt lat="49.031188244268" lon="2.5020810731147174"><ele>101.0</ele><time>2026-03-31T23:35:32.999Z</time></trkpt><trkpt lat="49.031289111667306" lon="2.502329313686592"><ele>101.33333333333333</ele><time>2026-03-31T23:35:33.999Z</time></trkpt><trkpt lat="49.03139462331797" lon="2.502579350849608"><ele>101.66666666666666</ele><time>2026-03-31T23:35:34.999Z</time></trkpt><trkpt lat="49.03150143549331" lon="2.5028306272301104"><ele>102.0</ele><time>2026-03-31T23:35:35.999Z</time></trkpt><trkpt lat="49.03162595763474" lon="2.5030634566953127"><ele>102.33333333333334</ele><time>2026-03-31T23:35:36.999Z</time></trkpt><trkpt lat="49.03176317514624" lon="2.5032771131100735"><ele>102.66666666666667</ele><time>2026-03-31T23:35:37.999Z</time></trkpt><trkpt lat="49.031912687586335" lon="2.5034731558184156"><ele>103.0</ele><time>2026-03-31T23:35:38.999Z</time></trkpt><trkpt lat="49.03207232923551" lon="2.5036499009215425"><ele>103.0</ele><time>2026-03-31T23:35:39.999Z</time></trkpt><trkpt lat="49.032243920675675" lon="2.50380449814307"><ele>103.0</ele><time>2026-03-31T23:35:40.999Z</time></trkpt><trkpt lat="49.0324231797056" lon="2.5039364670166258"><ele>103.0</ele><time>2026-03-31T23:35:41.999Z</time></trkpt><trkpt lat="49.03260899709772" lon="2.5040562618148527"><ele>102.66666666666667</ele><time>2026-03-31T23:35:42.999Z</time></trkpt><trkpt lat="49.03280019023444" lon="2.504172749640992"><ele>102.33333333333334</ele><time>2026-03-31T23:35:43.999Z</time></trkpt><trkpt lat="49.03299035375209" lon="2.5042935355813003"><ele>102.0</ele><time>2026-03-31T23:35:44.999Z</time></trkpt><trkpt lat="49.03318092426052" lon="2.504419071508236"><ele>101.66666666666666</ele><time>2026-03-31T23:35:45.999Z</time></trkpt><trkpt lat="49.03337343620214" lon="2.504545954689033"><ele>101.33333333333333</ele><time>2026-03-31T23:35:46.999Z</time></trkpt><trkpt lat="49.03356670852364" lon="2.5046744738382114"><ele>101.0</ele><time>2026-03-31T23:35:47.999Z</time></trkpt><trkpt lat="49.03376036568461" lon="2.504806721854198"><ele>101.0</ele><time>2026-03-31T23:35:48.999Z</time></trkpt><trkpt lat="49.03395007234065" lon="2.504934541308397"><ele>101.0</ele><time>2026-03-31T23:35:49.999Z</time></trkpt><trkpt lat="49.0341394644513" lon="2.5050600403112613"><ele>101.0</ele><time>2026-03-31T23:35:50.999Z</time></trkpt><trkpt lat="49.03432995457742" lon="2.5051852280433433"><ele>100.33333333333333</ele><time>2026-03-31T23:35:51.999Z</time></trkpt><trkpt lat="49.0345201988474" lon="2.505312483893746"><ele>99.66666666666666</ele><time>2026-03-31T23:35:52.999Z</time></trkpt><trkpt lat="49.03470585512809" lon="2.505441813929462"><ele>99.0</ele><time>2026-03-31T23:35:53.999Z</time></trkpt><trkpt lat="49.03489484950216" lon="2.5055754014508422"><ele>97.33333333333333</ele><time>2026-03-31T23:35:54.999Z</time></trkpt><trkpt lat="49.03508082686626" lon="2.5057139584477275"><ele>95.66666666666666</ele><time>2026-03-31T23:35:55.999Z</time></trkpt><trkpt lat="49.03526622237582" lon="2.5058570771130007"><ele>94.0</ele><time>2026-03-31T23:35:56.999Z</time></trkpt><trkpt lat="49.03544943271591" lon="2.5060016088763035"><ele>94.0</ele><time>2026-03-31T23:35:57.999Z</time></trkpt><trkpt lat="49.03563099792289" lon="2.5061462853290477"><ele>94.0</ele><time>2026-03-31T23:35:58.999Z</time></trkpt><trkpt lat="49.03581051455972" lon="2.506296317729616"><ele>94.0</ele><time>2026-03-31T23:35:59.999Z</time></trkpt><trkpt lat="49.03599088929777" lon="2.506441103917831"><ele>93.33333333333333</ele><time>2026-03-31T23:36:00.999Z</time></trkpt><trkpt lat="49.03617185492719" lon="2.5065846498400384"><ele>92.66666666666667</ele><time>2026-03-31T23:36:01.999Z</time></trkpt><trkpt lat="49.03635572639978" lon="2.506731457189617"><ele>92.0</ele><time>2026-03-31T23:36:02.999Z</time></trkpt><trkpt lat="49.036533084760904" lon="2.5068871800530714"><ele>91.33333333333334</ele><time>2026-03-31T23:36:03.999Z</time></trkpt><trkpt lat="49.03670850394207" lon="2.507044214542082"><ele>90.66666666666667</ele><time>2026-03-31T23:36:04.999Z</time></trkpt><trkpt lat="49.03688233506793" lon="2.507196056904004"><ele>90.0</ele><time>2026-03-31T23:36:05.999Z</time></trkpt><trkpt lat="49.03705547611014" lon="2.507341313496876"><ele>90.0</ele><time>2026-03-31T23:36:06.999Z</time></trkpt><trkpt lat="49.03722524774237" lon="2.507483529951016"><ele>90.0</ele><time>2026-03-31T23:36:07.999Z</time></trkpt><trkpt lat="49.037393234917154" lon="2.5076260565537654"><ele>90.0</ele><time>2026-03-31T23:36:08.999Z</time></trkpt><trkpt lat="49.03756398122011" lon="2.5077705015801683"><ele>88.33333333333333</ele><time>2026-03-31T23:36:09.999Z</time></trkpt><trkpt lat="49.03773057042716" lon="2.5079161865511286"><ele>86.66666666666666</ele><time>2026-03-31T23:36:10.999Z</time></trkpt><trkpt lat="49.037899877952164" lon="2.508064830948683"><ele>85.0</ele><time>2026-03-31T23:36:11.999Z</time></trkpt><trkpt lat="49.03806961932761" lon="2.5082151942170814"><ele>85.0</ele><time>2026-03-31T23:36:12.999Z</time></trkpt><trkpt lat="49.038240246126165" lon="2.508369661615736"><ele>85.0</ele><time>2026-03-31T23:36:13.999Z</time></trkpt><trkpt lat="49.03842058964085" lon="2.508520066928648"><ele>85.0</ele><time>2026-03-31T23:36:14.999Z</time></trkpt><trkpt lat="49.03859961507018" lon="2.5086710743215095"><ele>82.66666666666666</ele><time>2026-03-31T23:36:15.999Z</time></trkpt><trkpt lat="49.03878001928096" lon="2.5088227256132427"><ele>80.33333333333333</ele><time>2026-03-31T23:36:16.999Z</time></trkpt><trkpt lat="49.03895773643068" lon="2.508969620504693"><ele>78.0</ele><time>2026-03-31T23:36:17.999Z</time></trkpt><trkpt lat="49.03913706117068" lon="2.5091159102661633"><ele>78.0</ele><time>2026-03-31T23:36:18.999Z</time></trkpt><trkpt lat="49.03931456483766" lon="2.509262972868981"><ele>78.0</ele><time>2026-03-31T23:36:19.999Z</time></trkpt><trkpt lat="49.03949393393335" lon="2.509407223787067"><ele>78.0</ele><time>2026-03-31T23:36:20.998Z</time></trkpt><trkpt lat="49.03967301917414" lon="2.50954206737193"><ele>77.33333333333333</ele><time>2026-03-31T23:36:21.998Z</time></trkpt><trkpt lat="49.039854128635284" lon="2.5096779804294482"><ele>76.66666666666666</ele><time>2026-03-31T23:36:22.998Z</time></trkpt><trkpt lat="49.04003612858786" lon="2.509800306292278"><ele>76.0</ele><time>2026-03-31T23:36:23.998Z</time></trkpt><trkpt lat="49.04022011137934" lon="2.5099105897174088"><ele>79.0</ele><time>2026-03-31T23:36:24.998Z</time></trkpt><trkpt lat="49.040406438464565" lon="2.5100157476954292"><ele>82.0</ele><time>2026-03-31T23:36:25.998Z</time></trkpt><trkpt lat="49.04059644635998" lon="2.51010930024392"><ele>85.0</ele><time>2026-03-31T23:36:26.998Z</time></trkpt><trkpt lat="49.04078633929583" lon="2.5102023619437146"><ele>86.33333333333333</ele><time>2026-03-31T23:36:27.998Z</time></trkpt><trkpt lat="49.04097615788811" lon="2.5102853055756604"><ele>87.66666666666667</ele><time>2026-03-31T23:36:28.998Z</time></trkpt><trkpt lat="49.041163567815396" lon="2.5103638924872755"><ele>89.0</ele><time>2026-03-31T23:36:29.998Z</time></trkpt><trkpt lat="49.04135052179616" lon="2.510436817011032"><ele>89.66666666666667</ele><time>2026-03-31T23:36:30.998Z</time></trkpt><trkpt lat="49.04154102467826" lon="2.510506620367964"><ele>90.33333333333333</ele><time>2026-03-31T23:36:31.998Z</time></trkpt><trkpt lat="49.04172778390108" lon="2.510571968896403"><ele>91.0</ele><time>2026-03-31T23:36:32.998Z</time></trkpt><trkpt lat="49.04191768669752" lon="2.5106240742143013"><ele>92.33333333333333</ele><time>2026-03-31T23:36:33.998Z</time></trkpt><trkpt lat="49.04210807457847" lon="2.5106629992696057"><ele>93.66666666666667</ele><time>2026-03-31T23:36:34.998Z</time></trkpt><trkpt lat="49.042300766755474" lon="2.510704245116615"><ele>95.0</ele><time>2026-03-31T23:36:35.998Z</time></trkpt><trkpt lat="49.04249010549935" lon="2.5107429567837336"><ele>95.66666666666667</ele><time>2026-03-31T23:36:36.998Z</time></trkpt><trkpt lat="49.042680049609935" lon="2.510781841681831"><ele>96.33333333333334</ele><time>2026-03-31T23:36:37.998Z</time></trkpt><trkpt lat="49.04287066791716" lon="2.5108232925842024"><ele>97.0</ele><time>2026-03-31T23:36:38.998Z</time></trkpt><trkpt lat="49.04305849018174" lon="2.5108613305962013"><ele>97.0</ele><time>2026-03-31T23:36:39.998Z</time></trkpt><trkpt lat="49.043247163061956" lon="2.51089838656143"><ele>97.0</ele><time>2026-03-31T23:36:40.998Z</time></trkpt><trkpt lat="49.04343403600897" lon="2.51093773467394"><ele>97.0</ele><time>2026-03-31T23:36:41.998Z</time></trkpt><trkpt lat="49.043621047508594" lon="2.5109767620761634"><ele>98.33333333333334</ele><time>2026-03-31T23:36:42.998Z</time></trkpt><trkpt lat="49.043806960218575" lon="2.5110158766115984"><ele>99.66666666666666</ele><time>2026-03-31T23:36:44Z</time></trkpt><trkpt lat="49.043980848240174" lon="2.511058001483894"><ele>101.0</ele><time>2026-03-31T23:36:45Z</time></trkpt><trkpt lat="49.044146609852646" lon="2.5110930548153063"><ele>102.0</ele><time>2026-03-31T23:36:46Z</time></trkpt><trkpt lat="49.04430253437823" lon="2.511122011806601"><ele>103.0</ele><time>2026-03-31T23:36:47Z</time></trkpt><trkpt lat="49.04445527796244" lon="2.5111549604562446"><ele>104.0</ele><time>2026-03-31T23:36:48Z</time></trkpt><trkpt lat="49.04459853342216" lon="2.511183931470969"><ele>104.0</ele><time>2026-03-31T23:36:49Z</time></trkpt><trkpt lat="49.044734355830506" lon="2.511205334263408"><ele>104.0</ele><time>2026-03-31T23:36:50Z</time></trkpt><trkpt lat="49.044864952642996" lon="2.5112315854301266"><ele>104.0</ele><time>2026-03-31T23:36:51Z</time></trkpt><trkpt lat="49.04498989047936" lon="2.5112569823472777"><ele>104.0</ele><time>2026-03-31T23:36:52Z</time></trkpt><trkpt lat="49.04510795202684" lon="2.5112879049605947"><ele>103.80000000000001</ele><time>2026-03-31T23:36:53Z</time></trkpt><trkpt lat="49.045219243987916" lon="2.5113198676029307"><ele>103.60000000000001</ele><time>2026-03-31T23:36:54Z</time></trkpt><trkpt lat="49.045321503427765" lon="2.511351203339786"><ele>103.4</ele><time>2026-03-31T23:36:55Z</time></trkpt><trkpt lat="49.0454147233671" lon="2.5113804629583356"><ele>103.2</ele><time>2026-03-31T23:36:56Z</time></trkpt><trkpt lat="49.045494672789154" lon="2.5114091895876047"><ele>103.0</ele><time>2026-03-31T23:36:57Z</time></trkpt><trkpt lat="49.04556188607905" lon="2.5114435033810723"><ele>102.99999999999999</ele><time>2026-03-31T23:36:58Z</time></trkpt><trkpt lat="49.0456162961703" lon="2.511496804877509"><ele>103.0</ele><time>2026-03-31T23:36:59Z</time></trkpt><trkpt lat="49.04566562304608" lon="2.51156423411155"><ele>103.0</ele><time>2026-03-31T23:37:00Z</time></trkpt><trkpt lat="49.0457089916635" lon="2.511647008886236"><ele>103.0</ele><time>2026-03-31T23:37:01Z</time></trkpt><trkpt lat="49.04577415027001" lon="2.5117151738451042"><ele>103.0</ele><time>2026-03-31T23:37:02Z</time></trkpt><trkpt lat="49.04584247667199" lon="2.5117556993276517"><ele>102.99999999999999</ele><time>2026-03-31T23:37:03Z</time></trkpt><trkpt lat="49.04591692341557" lon="2.511764102562866"><ele>103.0</ele><time>2026-03-31T23:37:04Z</time></trkpt><trkpt lat="49.04598875109476" lon="2.5117310603274583"><ele>103.28571428571428</ele><time>2026-03-31T23:37:05Z</time></trkpt><trkpt lat="49.046042412558194" lon="2.5116469783715027"><ele>103.57142857142857</ele><time>2026-03-31T23:37:06Z</time></trkpt><trkpt lat="49.04607606742738" lon="2.5115478814511447"><ele>103.85714285714286</ele><time>2026-03-31T23:37:07Z</time></trkpt><trkpt lat="49.04607578306567" lon="2.5114324024190884"><ele>104.14285714285714</ele><time>2026-03-31T23:37:08Z</time></trkpt><trkpt lat="49.04605948539826" lon="2.5113254365951567"><ele>104.42857142857143</ele><time>2026-03-31T23:37:09Z</time></trkpt><trkpt lat="49.04602181661012" lon="2.5112284128014664"><ele>104.71428571428571</ele><time>2026-03-31T23:37:10Z</time></trkpt><trkpt lat="49.04597600922556" lon="2.5111341004387384"><ele>105.0</ele><time>2026-03-31T23:37:11Z</time></trkpt><trkpt lat="49.04591448227114" lon="2.511080501563886"><ele>105.0</ele><time>2026-03-31T23:37:12Z</time></trkpt><trkpt lat="49.0459079421675" lon="2.510920369291637"><ele>105.0</ele><time>2026-03-31T23:37:13Z</time></trkpt><trkpt lat="49.04587607891859" lon="2.51080912210965"><ele>105.0</ele><time>2026-03-31T23:37:14Z</time></trkpt><trkpt lat="49.04584556236833" lon="2.51070144927202"><ele>105.0</ele><time>2026-03-31T23:37:15Z</time></trkpt><trkpt lat="49.04581682887538" lon="2.510591869770924"><ele>105.0</ele><time>2026-03-31T23:37:16Z</time></trkpt><trkpt lat="49.04578664287926" lon="2.510482996072686"><ele>105.0</ele><time>2026-03-31T23:37:17Z</time></trkpt><trkpt lat="49.04575281595836" lon="2.510375430581706"><ele>105.5</ele><time>2026-03-31T23:37:18Z</time></trkpt><trkpt lat="49.04571717778228" lon="2.5102669640464352"><ele>106.0</ele><time>2026-03-31T23:37:19Z</time></trkpt><trkpt lat="49.04568561718707" lon="2.5101556821538242"><ele>106.5</ele><time>2026-03-31T23:37:20Z</time></trkpt><trkpt lat="49.045666658544164" lon="2.510034024828397"><ele>107.0</ele><time>2026-03-31T23:37:21Z</time></trkpt><trkpt lat="49.04567277396599" lon="2.5099186514087695"><ele>107.5</ele><time>2026-03-31T23:37:22Z</time></trkpt><trkpt lat="49.04569621491236" lon="2.5098174500176484"><ele>108.0</ele><time>2026-03-31T23:37:23Z</time></trkpt><trkpt lat="49.04572738044649" lon="2.509714424111545"><ele>108.0</ele><time>2026-03-31T23:37:23.999Z</time></trkpt><trkpt lat="49.04576491619605" lon="2.5096175735075854"><ele>108.0</ele><time>2026-03-31T23:37:24.999Z</time></trkpt><trkpt lat="49.04581940660955" lon="2.5095265756539913"><ele>108.0</ele><time>2026-03-31T23:37:25.999Z</time></trkpt><trkpt lat="49.04588817131221" lon="2.5094463538398055"><ele>108.0</ele><time>2026-03-31T23:37:26.999Z</time></trkpt><trkpt lat="49.04595472705542" lon="2.509361783149886"><ele>108.0</ele><time>2026-03-31T23:37:27.999Z</time></trkpt><trkpt lat="49.04601359734045" lon="2.5092690254284666"><ele>108.0</ele><time>2026-03-31T23:37:28.999Z</time></trkpt><trkpt lat="49.046081791781724" lon="2.5091683324275933"><ele>108.4</ele><time>2026-03-31T23:37:29.999Z</time></trkpt><trkpt lat="49.04615810716352" lon="2.5090510956736276"><ele>108.80000000000001</ele><time>2026-03-31T23:37:30.999Z</time></trkpt><trkpt lat="49.04623865182182" lon="2.508939037580095"><ele>109.2</ele><time>2026-03-31T23:37:31.999Z</time></trkpt><trkpt lat="49.0463151933244" lon="2.508823675853135"><ele>109.6</ele><time>2026-03-31T23:37:32.999Z</time></trkpt><trkpt lat="49.04639474580488" lon="2.5087103665701074"><ele>110.0</ele><time>2026-03-31T23:37:33.999Z</time></trkpt><trkpt lat="49.04647892631748" lon="2.508599854731929"><ele>110.0</ele><time>2026-03-31T23:37:34.999Z</time></trkpt><trkpt lat="49.046567200753714" lon="2.508487636551519"><ele>110.0</ele><time>2026-03-31T23:37:35.999Z</time></trkpt><trkpt lat="49.0466496175904" lon="2.508378343119827"><ele>110.0</ele><time>2026-03-31T23:37:36.999Z</time></trkpt><trkpt lat="49.04671855435818" lon="2.5082735759672246"><ele>110.0</ele><time>2026-03-31T23:37:37.999Z</time></trkpt><trkpt lat="49.0467923882988" lon="2.508170153217283"><ele>110.0</ele><time>2026-03-31T23:37:38.999Z</time></trkpt><trkpt lat="49.046867328502785" lon="2.508079577392966"><ele>109.99999999999999</ele><time>2026-03-31T23:37:39.999Z</time></trkpt><trkpt lat="49.046932806164094" lon="2.507988931061636"><ele>110.0</ele><time>2026-03-31T23:37:40.999Z</time></trkpt><trkpt lat="49.046994903827326" lon="2.507900589307142"><ele>110.0</ele><time>2026-03-31T23:37:41.999Z</time></trkpt><trkpt lat="49.0470525258479" lon="2.507819709484619"><ele>110.0</ele><time>2026-03-31T23:37:42.999Z</time></trkpt><trkpt lat="49.04710859486582" lon="2.5077390761446567"><ele>109.99999999999999</ele><time>2026-03-31T23:37:43.999Z</time></trkpt><trkpt lat="49.04716362174226" lon="2.5076639913491503"><ele>110.0</ele><time>2026-03-31T23:37:44.999Z</time></trkpt><trkpt lat="49.047208613732465" lon="2.507593391295565"><ele>110.16666666666666</ele><time>2026-03-31T23:37:45.999Z</time></trkpt><trkpt lat="49.04725545521308" lon="2.507524749817472"><ele>110.33333333333333</ele><time>2026-03-31T23:37:46.999Z</time></trkpt><trkpt lat="49.047342689480644" lon="2.5074052529267883"><ele>110.5</ele><time>2026-03-31T23:37:48.999Z</time></trkpt><trkpt lat="49.0474300646595" lon="2.507290524769275"><ele>110.66666666666666</ele><time>2026-03-31T23:37:50.999Z</time></trkpt><trkpt lat="49.04747814973006" lon="2.5072163393275937"><ele>110.83333333333333</ele><time>2026-03-31T23:37:51.999Z</time></trkpt><trkpt lat="49.04753278011321" lon="2.507142582458432"><ele>111.0</ele><time>2026-03-31T23:37:52.999Z</time></trkpt><trkpt lat="49.047587174957606" lon="2.5070663245354603"><ele>111.0</ele><time>2026-03-31T23:37:53.999Z</time></trkpt><trkpt lat="49.04764279841755" lon="2.50698809290369"><ele>111.0</ele><time>2026-03-31T23:37:54.999Z</time></trkpt><trkpt lat="49.04769928929731" lon="2.506916546738401"><ele>111.0</ele><time>2026-03-31T23:37:55.999Z</time></trkpt><trkpt lat="49.04774723727449" lon="2.5068479404328525"><ele>111.0</ele><time>2026-03-31T23:37:56.999Z</time></trkpt><trkpt lat="49.04779527629925" lon="2.506781318944141"><ele>111.0</ele><time>2026-03-31T23:37:57.999Z</time></trkpt><trkpt lat="49.04787218177793" lon="2.5066817525710006"><ele>111.0</ele><time>2026-03-31T23:37:59.999Z</time></trkpt><trkpt lat="49.04791644742847" lon="2.5066059749716048"><ele>111.0</ele><time>2026-03-31T23:38:02.999Z</time></trkpt><trkpt lat="49.04797660608514" lon="2.5065137015702534"><ele>111.0</ele><time>2026-03-31T23:39:06Z</time></trkpt><trkpt lat="49.04807090210374" lon="2.5063866700023474"><ele>111.0</ele><time>2026-03-31T23:39:08Z</time></trkpt><trkpt lat="49.04811879702102" lon="2.506314474250935"><ele>111.0</ele><time>2026-03-31T23:39:09Z</time></trkpt><trkpt lat="49.04817874075925" lon="2.506234290545173"><ele>111.0</ele><time>2026-03-31T23:39:10Z</time></trkpt><trkpt lat="49.048239596514364" lon="2.506146903957281"><ele>111.0</ele><time>2026-03-31T23:39:11Z</time></trkpt><trkpt lat="49.04830864292156" lon="2.506049615168987"><ele>111.19999999999999</ele><time>2026-03-31T23:39:12Z</time></trkpt><trkpt lat="49.04837186084019" lon="2.5059467200862797"><ele>111.39999999999999</ele><time>2026-03-31T23:39:13Z</time></trkpt><trkpt lat="49.04843627330602" lon="2.505837713830138"><ele>111.6</ele><time>2026-03-31T23:39:14Z</time></trkpt><trkpt lat="49.048501422606236" lon="2.505728631664067"><ele>111.8</ele><time>2026-03-31T23:39:15Z</time></trkpt><trkpt lat="49.048565464569634" lon="2.5056214219605377"><ele>112.0</ele><time>2026-03-31T23:39:16Z</time></trkpt><trkpt lat="49.048630904311885" lon="2.5055157494439717"><ele>111.8</ele><time>2026-03-31T23:39:17Z</time></trkpt><trkpt lat="49.04869216474625" lon="2.5054025924332612"><ele>111.6</ele><time>2026-03-31T23:39:18Z</time></trkpt><trkpt lat="49.04875601510202" lon="2.505291739518369"><ele>111.39999999999999</ele><time>2026-03-31T23:39:19Z</time></trkpt><trkpt lat="49.04882519681192" lon="2.5051792841021943"><ele>111.19999999999999</ele><time>2026-03-31T23:39:20Z</time></trkpt><trkpt lat="49.04889752696636" lon="2.505058487040942"><ele>111.0</ele><time>2026-03-31T23:39:21Z</time></trkpt><trkpt lat="49.04896791302857" lon="2.5049380908231083"><ele>111.0</ele><time>2026-03-31T23:39:22Z</time></trkpt><trkpt lat="49.04903988599123" lon="2.5048151347323446"><ele>111.0</ele><time>2026-03-31T23:39:23Z</time></trkpt><trkpt lat="49.04911418439297" lon="2.504692022770056"><ele>111.0</ele><time>2026-03-31T23:39:24Z</time></trkpt><trkpt lat="49.04918256502635" lon="2.504570859359889"><ele>111.0</ele><time>2026-03-31T23:39:25Z</time></trkpt><trkpt lat="49.04925308992658" lon="2.5044537452097244"><ele>111.0</ele><time>2026-03-31T23:39:26Z</time></trkpt><trkpt lat="49.04932133947698" lon="2.5043302364818922"><ele>109.8</ele><time>2026-03-31T23:39:27Z</time></trkpt><trkpt lat="49.04939324839255" lon="2.5042123232075757"><ele>108.6</ele><time>2026-03-31T23:39:28Z</time></trkpt><trkpt lat="49.04946539220003" lon="2.5040871013551946"><ele>107.4</ele><time>2026-03-31T23:39:29Z</time></trkpt><trkpt lat="49.049541704122866" lon="2.503960292359364"><ele>106.2</ele><time>2026-03-31T23:39:30Z</time></trkpt><trkpt lat="49.049621336265716" lon="2.5038303105330058"><ele>105.0</ele><time>2026-03-31T23:39:31Z</time></trkpt><trkpt lat="49.04969889444753" lon="2.5037075047685575"><ele>104.0</ele><time>2026-03-31T23:39:32Z</time></trkpt><trkpt lat="49.04976734051626" lon="2.5035852143286883"><ele>103.0</ele><time>2026-03-31T23:39:33Z</time></trkpt><trkpt lat="49.049837745230924" lon="2.5034602741770375"><ele>102.0</ele><time>2026-03-31T23:39:34Z</time></trkpt><trkpt lat="49.04990968279245" lon="2.503332163269242"><ele>101.0</ele><time>2026-03-31T23:39:35Z</time></trkpt><trkpt lat="49.04998591657667" lon="2.503205909326491"><ele>100.0</ele><time>2026-03-31T23:39:36Z</time></trkpt><trkpt lat="49.050060735085864" lon="2.5030830395263983"><ele>100.0</ele><time>2026-03-31T23:39:37Z</time></trkpt><trkpt lat="49.05012903674392" lon="2.5029721278271837"><ele>100.0</ele><time>2026-03-31T23:39:38Z</time></trkpt><trkpt lat="49.05019536895727" lon="2.5028677265614427"><ele>100.0</ele><time>2026-03-31T23:39:38.999Z</time></trkpt><trkpt lat="49.05026018460246" lon="2.50276523769284"><ele>100.0</ele><time>2026-03-31T23:39:39.999Z</time></trkpt><trkpt lat="49.050340325817885" lon="2.5026977136046202"><ele>100.0</ele><time>2026-03-31T23:39:40.999Z</time></trkpt><trkpt lat="49.05043234399423" lon="2.502643958995212"><ele>100.2</ele><time>2026-03-31T23:39:41.999Z</time></trkpt><trkpt lat="49.05053280144197" lon="2.502601730739585"><ele>100.4</ele><time>2026-03-31T23:39:42.999Z</time></trkpt><trkpt lat="49.050635109303535" lon="2.502571578848918"><ele>100.6</ele><time>2026-03-31T23:39:43.999Z</time></trkpt><trkpt lat="49.05073937649298" lon="2.502541381152887"><ele>100.8</ele><time>2026-03-31T23:39:44.999Z</time></trkpt><trkpt lat="49.0508449375523" lon="2.502513317705194"><ele>101.0</ele><time>2026-03-31T23:39:45.999Z</time></trkpt><trkpt lat="49.050952810957135" lon="2.5024847913597674"><ele>101.0</ele><time>2026-03-31T23:39:46.999Z</time></trkpt><trkpt lat="49.051057028654135" lon="2.502465950114905"><ele>101.0</ele><time>2026-03-31T23:39:47.999Z</time></trkpt><trkpt lat="49.05115065161385" lon="2.5024274309993833"><ele>101.0</ele><time>2026-03-31T23:39:48.999Z</time></trkpt><trkpt lat="49.051265496774" lon="2.5024025320873533"><ele>101.0</ele><time>2026-03-31T23:39:49.999Z</time></trkpt><trkpt lat="49.0513718715979" lon="2.502362816899457"><ele>101.0</ele><time>2026-03-31T23:39:50.999Z</time></trkpt><trkpt lat="49.0514755607216" lon="2.502318190962974"><ele>101.0</ele><time>2026-03-31T23:39:51.999Z</time></trkpt><trkpt lat="49.051575416327864" lon="2.502281129606802"><ele>101.0</ele><time>2026-03-31T23:39:52.999Z</time></trkpt><trkpt lat="49.05167583173363" lon="2.5022461922234154"><ele>101.0</ele><time>2026-03-31T23:39:53.999Z</time></trkpt><trkpt lat="49.05177370005432" lon="2.502220506645178"><ele>101.0</ele><time>2026-03-31T23:39:54.999Z</time></trkpt><trkpt lat="49.05188167323425" lon="2.5021911451335854"><ele>101.0</ele><time>2026-03-31T23:39:55.999Z</time></trkpt><trkpt lat="49.05198941197273" lon="2.502163701988546"><ele>101.6</ele><time>2026-03-31T23:39:56.999Z</time></trkpt><trkpt lat="49.05208542194779" lon="2.502124689884174"><ele>102.19999999999999</ele><time>2026-03-31T23:39:57.999Z</time></trkpt><trkpt lat="49.05219422655419" lon="2.5020971383139705"><ele>102.80000000000001</ele><time>2026-03-31T23:39:58.999Z</time></trkpt><trkpt lat="49.05229985721649" lon="2.502066414066324"><ele>103.4</ele><time>2026-03-31T23:39:59.999Z</time></trkpt><trkpt lat="49.05239672797393" lon="2.5020514935980085"><ele>104.0</ele><time>2026-03-31T23:40:00.999Z</time></trkpt><trkpt lat="49.05248291932493" lon="2.502012238511779"><ele>104.99999999999999</ele><time>2026-03-31T23:40:01.999Z</time></trkpt><trkpt lat="49.0525631289567" lon="2.501996903972731"><ele>106.0</ele><time>2026-03-31T23:40:02.999Z</time></trkpt><trkpt lat="49.052635435035135" lon="2.5019708264909113"><ele>107.0</ele><time>2026-03-31T23:40:03.999Z</time></trkpt><trkpt lat="49.05270607975664" lon="2.5019401880215306"><ele>108.0</ele><time>2026-03-31T23:40:04.999Z</time></trkpt><trkpt lat="49.05277989385108" lon="2.5019047782881105"><ele>108.99999999999999</ele><time>2026-03-31T23:40:05.999Z</time></trkpt><trkpt lat="49.05285792280911" lon="2.5018747474125003"><ele>110.0</ele><time>2026-03-31T23:40:06.999Z</time></trkpt><trkpt lat="49.05293589347812" lon="2.5018635441508343"><ele>110.0</ele><time>2026-03-31T23:40:07.999Z</time></trkpt><trkpt lat="49.05302140746466" lon="2.5018514891700847"><ele>110.0</ele><time>2026-03-31T23:40:08.999Z</time></trkpt><trkpt lat="49.053114094497545" lon="2.501834191986082"><ele>110.0</ele><time>2026-03-31T23:40:09.999Z</time></trkpt><trkpt lat="49.053207748160624" lon="2.501820479256115"><ele>110.0</ele><time>2026-03-31T23:40:10.999Z</time></trkpt><trkpt lat="49.05329729257986" lon="2.5018035447897264"><ele>110.0</ele><time>2026-03-31T23:40:11.999Z</time></trkpt><trkpt lat="49.053386810375734" lon="2.501774829721135"><ele>110.6</ele><time>2026-03-31T23:40:12.999Z</time></trkpt><trkpt lat="49.05347105305827" lon="2.5017475940836627"><ele>111.2</ele><time>2026-03-31T23:40:13.999Z</time></trkpt><trkpt lat="49.053554252734514" lon="2.501722584346151"><ele>111.80000000000001</ele><time>2026-03-31T23:40:14.999Z</time></trkpt><trkpt lat="49.053641460956975" lon="2.5017226559004517"><ele>112.4</ele><time>2026-03-31T23:40:15.999Z</time></trkpt><trkpt lat="49.053733390936834" lon="2.5016975295689385"><ele>113.0</ele><time>2026-03-31T23:40:16.999Z</time></trkpt><trkpt lat="49.05383517628582" lon="2.50164651705455"><ele>113.0</ele><time>2026-03-31T23:40:17.999Z</time></trkpt><trkpt lat="49.05393629363459" lon="2.501620990907024"><ele>113.0</ele><time>2026-03-31T23:40:18.999Z</time></trkpt><trkpt lat="49.054051282202764" lon="2.501587592328183"><ele>113.0</ele><time>2026-03-31T23:40:19.999Z</time></trkpt><trkpt lat="49.0541619656706" lon="2.5015550955928036"><ele>113.0</ele><time>2026-03-31T23:40:20.999Z</time></trkpt><trkpt lat="49.054281677050035" lon="2.501527669138135"><ele>114.25</ele><time>2026-03-31T23:40:21.999Z</time></trkpt><trkpt lat="49.05439290145978" lon="2.5014955606852376"><ele>115.5</ele><time>2026-03-31T23:40:22.999Z</time></trkpt><trkpt lat="49.05450258290605" lon="2.501464344595791"><ele>116.75</ele><time>2026-03-31T23:40:23.999Z</time></trkpt><trkpt lat="49.05461310595604" lon="2.501431802712595"><ele>118.0</ele><time>2026-03-31T23:40:24.999Z</time></trkpt><trkpt lat="49.05473172154947" lon="2.501415657675397"><ele>118.0</ele><time>2026-03-31T23:40:25.999Z</time></trkpt><trkpt lat="49.05483765888232" lon="2.501383268132375"><ele>118.00000000000001</ele><time>2026-03-31T23:40:26.999Z</time></trkpt><trkpt lat="49.05494402088834" lon="2.501356867510299"><ele>118.00000000000001</ele><time>2026-03-31T23:40:27.999Z</time></trkpt><trkpt lat="49.055046409648384" lon="2.5013249743947656"><ele>118.0</ele><time>2026-03-31T23:40:28.999Z</time></trkpt><trkpt lat="49.05515324854612" lon="2.501304337507999"><ele>118.0</ele><time>2026-03-31T23:40:29.999Z</time></trkpt><trkpt lat="49.055254644201106" lon="2.5012729362622315"><ele>118.4</ele><time>2026-03-31T23:40:30.999Z</time></trkpt><trkpt lat="49.05535201408676" lon="2.5012455318619202"><ele>118.80000000000001</ele><time>2026-03-31T23:40:31.999Z</time></trkpt><trkpt lat="49.055448284340635" lon="2.5012131056462965"><ele>119.2</ele><time>2026-03-31T23:40:32.999Z</time></trkpt><trkpt lat="49.05555186216296" lon="2.501190933096665"><ele>119.6</ele><time>2026-03-31T23:40:33.999Z</time></trkpt><trkpt lat="49.05565383770563" lon="2.5011625078682758"><ele>120.0</ele><time>2026-03-31T23:40:34.999Z</time></trkpt><trkpt lat="49.05574947062465" lon="2.501132405944209"><ele>119.66666666666667</ele><time>2026-03-31T23:40:35.999Z</time></trkpt><trkpt lat="49.05583977872967" lon="2.5011063138743967"><ele>119.33333333333334</ele><time>2026-03-31T23:40:36.999Z</time></trkpt><trkpt lat="49.0559297454187" lon="2.501083053612697"><ele>119.0</ele><time>2026-03-31T23:40:37.999Z</time></trkpt><trkpt lat="49.05601269156492" lon="2.501057175981715"><ele>118.66666666666667</ele><time>2026-03-31T23:40:38.999Z</time></trkpt><trkpt lat="49.056083675443425" lon="2.501034571769924"><ele>118.33333333333334</ele><time>2026-03-31T23:40:39.999Z</time></trkpt><trkpt lat="49.0561553853833" lon="2.5010169688179524"><ele>118.0</ele><time>2026-03-31T23:40:40.999Z</time></trkpt><trkpt lat="49.05622004062897" lon="2.5010017381479703"><ele>118.00000000000001</ele><time>2026-03-31T23:40:41.998Z</time></trkpt><trkpt lat="49.05631862220643" lon="2.500970745461302"><ele>118.0</ele><time>2026-03-31T23:40:43.998Z</time></trkpt><trkpt lat="49.056383145673735" lon="2.500947315906069"><ele>118.0</ele><time>2026-03-31T23:40:45.998Z</time></trkpt><trkpt lat="49.05644833278156" lon="2.5009309767672216"><ele>118.0</ele><time>2026-03-31T23:40:48.998Z</time></trkpt><trkpt lat="49.056515976194845" lon="2.500936648886674"><ele>118.00000000000001</ele><time>2026-03-31T23:40:51.998Z</time></trkpt><trkpt lat="49.056600891453655" lon="2.5008733643108894"><ele>118.0</ele><time>2026-03-31T23:40:53.998Z</time></trkpt><trkpt lat="49.056730273194425" lon="2.500839771105285"><ele>117.50000000000001</ele><time>2026-03-31T23:40:56Z</time></trkpt><trkpt lat="49.056799749369226" lon="2.500825076121496"><ele>117.0</ele><time>2026-03-31T23:40:57Z</time></trkpt><trkpt lat="49.05687758030369" lon="2.5008058170054643"><ele>116.5</ele><time>2026-03-31T23:40:58Z</time></trkpt><trkpt lat="49.05695910619604" lon="2.500786391465435"><ele>116.0</ele><time>2026-03-31T23:40:59Z</time></trkpt><trkpt lat="49.05703736874755" lon="2.500764346308765"><ele>115.50000000000001</ele><time>2026-03-31T23:41:00Z</time></trkpt><trkpt lat="49.057115531780624" lon="2.500742462618445"><ele>115.0</ele><time>2026-03-31T23:41:01Z</time></trkpt><trkpt lat="49.057192391544014" lon="2.5007219410494343"><ele>115.00000000000001</ele><time>2026-03-31T23:41:02Z</time></trkpt><trkpt lat="49.05726716734252" lon="2.5007062827101367"><ele>115.0</ele><time>2026-03-31T23:41:03Z</time></trkpt><trkpt lat="49.057342268963424" lon="2.5007074736971604"><ele>115.0</ele><time>2026-03-31T23:41:04Z</time></trkpt><trkpt lat="49.057410290099476" lon="2.500738916584329"><ele>115.0</ele><time>2026-03-31T23:41:05Z</time></trkpt><trkpt lat="49.05748286636034" lon="2.500781131831675"><ele>115.00000000000001</ele><time>2026-03-31T23:41:06Z</time></trkpt><trkpt lat="49.05755184559894" lon="2.500831850436669"><ele>115.0</ele><time>2026-03-31T23:41:07Z</time></trkpt><trkpt lat="49.05761335352131" lon="2.500911109413363"><ele>114.83333333333334</ele><time>2026-03-31T23:41:08Z</time></trkpt><trkpt lat="49.057656856854635" lon="2.5010032285728023"><ele>114.66666666666667</ele><time>2026-03-31T23:41:09Z</time></trkpt><trkpt lat="49.057676495497326" lon="2.5011105752638008"><ele>114.5</ele><time>2026-03-31T23:41:10Z</time></trkpt><trkpt lat="49.05769349577261" lon="2.5012151420666275"><ele>114.33333333333334</ele><time>2026-03-31T23:41:11Z</time></trkpt><trkpt lat="49.05771882504055" lon="2.5013087449923956"><ele>114.16666666666667</ele><time>2026-03-31T23:41:12Z</time></trkpt><trkpt lat="49.05777397930735" lon="2.5014440931133377"><ele>114.0</ele><time>2026-03-31T23:41:14Z</time></trkpt><trkpt lat="49.057849918976" lon="2.5015606540990105"><ele>114.0</ele><time>2026-03-31T23:41:16Z</time></trkpt><trkpt lat="49.05793922699848" lon="2.501660925739136"><ele>114.0</ele><time>2026-03-31T23:41:18Z</time></trkpt><trkpt lat="49.058015123429996" lon="2.5017440302405847"><ele>114.0</ele><time>2026-03-31T23:41:20Z</time></trkpt><trkpt lat="49.05811293358352" lon="2.501837268284736"><ele>114.0</ele><time>2026-03-31T23:41:22Z</time></trkpt><trkpt lat="49.0582010408734" lon="2.5019293885603187"><ele>114.0</ele><time>2026-03-31T23:41:24Z</time></trkpt><trkpt lat="49.05827911053839" lon="2.502017524771506"><ele>114.16666666666667</ele><time>2026-03-31T23:41:26Z</time></trkpt><trkpt lat="49.05835608606297" lon="2.5020933409950135"><ele>114.33333333333334</ele><time>2026-03-31T23:41:28Z</time></trkpt><trkpt lat="49.058414007758174" lon="2.5021589486708313"><ele>114.5</ele><time>2026-03-31T23:41:29Z</time></trkpt><trkpt lat="49.05847713922749" lon="2.5022289594052047"><ele>114.66666666666667</ele><time>2026-03-31T23:41:30Z</time></trkpt><trkpt lat="49.05855463309933" lon="2.502311821723934"><ele>114.83333333333334</ele><time>2026-03-31T23:41:31Z</time></trkpt><trkpt lat="49.05863313501864" lon="2.5023947838593297"><ele>115.0</ele><time>2026-03-31T23:41:32Z</time></trkpt><trkpt lat="49.05871376082821" lon="2.5024716210466904"><ele>115.00000000000001</ele><time>2026-03-31T23:41:33Z</time></trkpt><trkpt lat="49.05879350104921" lon="2.5025517388215563"><ele>115.0</ele><time>2026-03-31T23:41:34Z</time></trkpt><trkpt lat="49.0588652991139" lon="2.5026344894360077"><ele>115.0</ele><time>2026-03-31T23:41:35Z</time></trkpt><trkpt lat="49.058930641207226" lon="2.5027038272548743"><ele>115.0</ele><time>2026-03-31T23:41:36Z</time></trkpt><trkpt lat="49.05899582336627" lon="2.5027693730972387"><ele>115.00000000000001</ele><time>2026-03-31T23:41:37Z</time></trkpt><trkpt lat="49.05906098241018" lon="2.5028285662443204"><ele>115.0</ele><time>2026-03-31T23:41:38Z</time></trkpt><trkpt lat="49.059121411369446" lon="2.5028908453900427"><ele>115.0</ele><time>2026-03-31T23:41:39Z</time></trkpt><trkpt lat="49.05921659580202" lon="2.503003197384832"><ele>115.0</ele><time>2026-03-31T23:41:41Z</time></trkpt><trkpt lat="49.0592973219173" lon="2.5030826665654007"><ele>115.0</ele><time>2026-03-31T23:41:42.999Z</time></trkpt><trkpt lat="49.05938668233832" lon="2.5031522781433404"><ele>115.0</ele><time>2026-03-31T23:41:44.999Z</time></trkpt><trkpt lat="49.05948124903724" lon="2.5032196308337653"><ele>115.0</ele><time>2026-03-31T23:41:46.999Z</time></trkpt><trkpt lat="49.05954992536783" lon="2.5032725415793546"><ele>115.0</ele><time>2026-03-31T23:41:48.999Z</time></trkpt><trkpt lat="49.05957658679667" lon="2.5034625077974235"><ele>115.0</ele><time>2026-03-31T23:41:50.999Z</time></trkpt><trkpt lat="49.05958510862981" lon="2.503631103328354"><ele>115.0</ele><time>2026-03-31T23:41:52.999Z</time></trkpt><trkpt lat="49.059599988022846" lon="2.5038072796035404"><ele>115.0</ele><time>2026-03-31T23:41:54.999Z</time></trkpt><trkpt lat="49.0596011903174" lon="2.5039067079281283"><ele>115.0</ele><time>2026-03-31T23:41:55.999Z</time></trkpt><trkpt lat="49.0597099137325" lon="2.50392978741242"><ele>115.0</ele><time>2026-03-31T23:41:57.999Z</time></trkpt><trkpt lat="49.059823843993755" lon="2.5039232426669336"><ele>115.0</ele><time>2026-03-31T23:41:59.999Z</time></trkpt><trkpt lat="49.05994616351495" lon="2.5039217086190106"><ele>115.0</ele><time>2026-03-31T23:42:01.999Z</time></trkpt><trkpt lat="49.0600632575185" lon="2.5039367367488032"><ele>115.0</ele><time>2026-03-31T23:42:03.999Z</time></trkpt><trkpt lat="49.060179280139906" lon="2.503970623948088"><ele>115.4</ele><time>2026-03-31T23:42:05.999Z</time></trkpt><trkpt lat="49.060265200697096" lon="2.5040568694449936"><ele>115.8</ele><time>2026-03-31T23:42:07.999Z</time></trkpt><trkpt lat="49.06032718398836" lon="2.5041994317992176"><ele>116.19999999999999</ele><time>2026-03-31T23:42:09.999Z</time></trkpt><trkpt lat="49.060397709153406" lon="2.5043331770322736"><ele>116.6</ele><time>2026-03-31T23:42:11.999Z</time></trkpt><trkpt lat="49.0604842694454" lon="2.504451897527076"><ele>117.0</ele><time>2026-03-31T23:42:13.999Z</time></trkpt><trkpt lat="49.06055307789374" lon="2.5045558370381067"><ele>117.0</ele><time>2026-03-31T23:42:15.999Z</time></trkpt><trkpt lat="49.06061418396271" lon="2.5046388979827126"><ele>118.0</ele><time>2026-03-31T23:42:17.999Z</time></trkpt><trkpt lat="49.06064995662109" lon="2.504780875766814"><ele>118.0</ele><time>2026-03-31T23:42:19.999Z</time></trkpt><trkpt lat="49.06068113460446" lon="2.5049208300502697"><ele>118.0</ele><time>2026-03-31T23:42:21.999Z</time></trkpt><trkpt lat="49.06069860986623" lon="2.505024460561012"><ele>118.0</ele><time>2026-03-31T23:42:23.999Z</time></trkpt><trkpt lat="49.06068280037848" lon="2.505128686187523"><ele>118.0</ele><time>2026-03-31T23:42:27.999Z</time></trkpt></trkseg></trk></gpx>